<?xml version="1.0" encoding="UTF-8" standalone="no" ?>
<gpx xmlns="http://www.topografix.com/GPX/1/1" xmlns:xsi="http://www.w3.org/2001/XMLSchema-instance" xsi:schemaLocation="http://www.topografix.com/GPX/1/1 http://www.topografix.com/GPX/1/1/gpx.xsd" version="1.1" creator="VisuGPX - https://www.visugpx.com">
  <metadata>
    <name>Sanglier 2023 - VTT 36km et 48km</name>
  </metadata>
  <trk>
    <name><![CDATA[Sanglier 2023 - VTT 36km-16345318]]></name>
    <extensions>
      <line xmlns="http://www.topografix.com/GPX/gpx_style/0/2">
        <color>0000FF</color>
        <width>4</width>
      </line>
    </extensions>
    <trkseg>
      <trkpt lat="45.42867" lon="4.97047">
        <ele>402.4</ele>
        <time>2023-08-30T21:21:13Z</time>
      </trkpt>
      <trkpt lat="45.42841" lon="4.9705">
        <ele>401</ele>
        <time>2023-08-30T21:21:19Z</time>
      </trkpt>
      <trkpt lat="45.42789" lon="4.97068">
        <ele>403</ele>
        <time>2023-08-30T21:21:32Z</time>
      </trkpt>
      <trkpt lat="45.42595" lon="4.97091">
        <ele>408</ele>
        <time>2023-08-30T21:22:17Z</time>
      </trkpt>
      <trkpt lat="45.42481" lon="4.97097">
        <ele>407</ele>
        <time>2023-08-30T21:22:44Z</time>
      </trkpt>
      <trkpt lat="45.42454" lon="4.97102">
        <ele>408</ele>
        <time>2023-08-30T21:22:50Z</time>
      </trkpt>
      <trkpt lat="45.42427" lon="4.97116">
        <ele>408</ele>
        <time>2023-08-30T21:22:57Z</time>
      </trkpt>
      <trkpt lat="45.42385" lon="4.97145">
        <ele>411</ele>
        <time>2023-08-30T21:23:08Z</time>
      </trkpt>
      <trkpt lat="45.42375" lon="4.97144">
        <ele>411</ele>
        <time>2023-08-30T21:23:10Z</time>
      </trkpt>
      <trkpt lat="45.42369" lon="4.97146">
        <ele>411</ele>
        <time>2023-08-30T21:23:11Z</time>
      </trkpt>
      <trkpt lat="45.42314" lon="4.97172">
        <ele>414</ele>
        <time>2023-08-30T21:23:25Z</time>
      </trkpt>
      <trkpt lat="45.42235" lon="4.972">
        <ele>416</ele>
        <time>2023-08-30T21:23:44Z</time>
      </trkpt>
      <trkpt lat="45.42223" lon="4.97202">
        <ele>416</ele>
        <time>2023-08-30T21:23:47Z</time>
      </trkpt>
      <trkpt lat="45.42203" lon="4.97202">
        <ele>416</ele>
        <time>2023-08-30T21:23:51Z</time>
      </trkpt>
      <trkpt lat="45.41987" lon="4.9718">
        <ele>422</ele>
        <time>2023-08-30T21:24:42Z</time>
      </trkpt>
      <trkpt lat="45.41983" lon="4.97174">
        <ele>422</ele>
        <time>2023-08-30T21:24:43Z</time>
      </trkpt>
      <trkpt lat="45.41974" lon="4.97178">
        <ele>422</ele>
        <time>2023-08-30T21:24:46Z</time>
      </trkpt>
      <trkpt lat="45.41933" lon="4.97185">
        <ele>423</ele>
        <time>2023-08-30T21:24:55Z</time>
      </trkpt>
      <trkpt lat="45.4185" lon="4.97203">
        <ele>424</ele>
        <time>2023-08-30T21:25:15Z</time>
      </trkpt>
      <trkpt lat="45.41808" lon="4.97212">
        <ele>423</ele>
        <time>2023-08-30T21:25:25Z</time>
      </trkpt>
      <trkpt lat="45.41768" lon="4.97221">
        <ele>421</ele>
        <time>2023-08-30T21:25:34Z</time>
      </trkpt>
      <trkpt lat="45.41748" lon="4.97225">
        <ele>420</ele>
        <time>2023-08-30T21:25:39Z</time>
      </trkpt>
      <trkpt lat="45.41735" lon="4.9722">
        <ele>419</ele>
        <time>2023-08-30T21:25:42Z</time>
      </trkpt>
      <trkpt lat="45.41722" lon="4.97218">
        <ele>418</ele>
        <time>2023-08-30T21:25:45Z</time>
      </trkpt>
      <trkpt lat="45.4172" lon="4.97189">
        <ele>417</ele>
        <time>2023-08-30T21:25:50Z</time>
      </trkpt>
      <trkpt lat="45.41732" lon="4.97144">
        <ele>417</ele>
        <time>2023-08-30T21:25:58Z</time>
      </trkpt>
      <trkpt lat="45.41725" lon="4.97137">
        <ele>416</ele>
        <time>2023-08-30T21:26:00Z</time>
      </trkpt>
      <trkpt lat="45.41686" lon="4.9713">
        <ele>412</ele>
        <time>2023-08-30T21:26:09Z</time>
      </trkpt>
      <trkpt lat="45.41652" lon="4.97126">
        <ele>407</ele>
        <time>2023-08-30T21:26:17Z</time>
      </trkpt>
      <trkpt lat="45.4163" lon="4.97127">
        <ele>404</ele>
        <time>2023-08-30T21:26:22Z</time>
      </trkpt>
      <trkpt lat="45.4162" lon="4.97145">
        <ele>403</ele>
        <time>2023-08-30T21:26:26Z</time>
      </trkpt>
      <trkpt lat="45.41609" lon="4.97158">
        <ele>401</ele>
        <time>2023-08-30T21:26:29Z</time>
      </trkpt>
      <trkpt lat="45.41558" lon="4.97155">
        <ele>394</ele>
        <time>2023-08-30T21:26:41Z</time>
      </trkpt>
      <trkpt lat="45.415" lon="4.97153">
        <ele>388</ele>
        <time>2023-08-30T21:26:55Z</time>
      </trkpt>
      <trkpt lat="45.41487" lon="4.97154">
        <ele>386</ele>
        <time>2023-08-30T21:26:58Z</time>
      </trkpt>
      <trkpt lat="45.41474" lon="4.97161">
        <ele>385</ele>
        <time>2023-08-30T21:27:01Z</time>
      </trkpt>
      <trkpt lat="45.41466" lon="4.9718">
        <ele>385</ele>
        <time>2023-08-30T21:27:05Z</time>
      </trkpt>
      <trkpt lat="45.41461" lon="4.97201">
        <ele>385</ele>
        <time>2023-08-30T21:27:08Z</time>
      </trkpt>
      <trkpt lat="45.41453" lon="4.97225">
        <ele>385</ele>
        <time>2023-08-30T21:27:13Z</time>
      </trkpt>
      <trkpt lat="45.41447" lon="4.97225">
        <ele>384</ele>
        <time>2023-08-30T21:27:14Z</time>
      </trkpt>
      <trkpt lat="45.41436" lon="4.97221">
        <ele>383</ele>
        <time>2023-08-30T21:27:17Z</time>
      </trkpt>
      <trkpt lat="45.4143" lon="4.9723">
        <ele>383</ele>
        <time>2023-08-30T21:27:19Z</time>
      </trkpt>
      <trkpt lat="45.41419" lon="4.97234">
        <ele>382</ele>
        <time>2023-08-30T21:27:21Z</time>
      </trkpt>
      <trkpt lat="45.41373" lon="4.97229">
        <ele>381</ele>
        <time>2023-08-30T21:27:32Z</time>
      </trkpt>
      <trkpt lat="45.41353" lon="4.97227">
        <ele>381</ele>
        <time>2023-08-30T21:27:37Z</time>
      </trkpt>
      <trkpt lat="45.41316" lon="4.97194">
        <ele>384</ele>
        <time>2023-08-30T21:27:47Z</time>
      </trkpt>
      <trkpt lat="45.41295" lon="4.97169">
        <ele>391</ele>
        <time>2023-08-30T21:27:53Z</time>
      </trkpt>
      <trkpt lat="45.41289" lon="4.97136">
        <ele>393</ele>
        <time>2023-08-30T21:27:59Z</time>
      </trkpt>
      <trkpt lat="45.41296" lon="4.97101">
        <ele>390</ele>
        <time>2023-08-30T21:28:05Z</time>
      </trkpt>
      <trkpt lat="45.41297" lon="4.97066">
        <ele>388</ele>
        <time>2023-08-30T21:28:11Z</time>
      </trkpt>
      <trkpt lat="45.41308" lon="4.97039">
        <ele>385</ele>
        <time>2023-08-30T21:28:16Z</time>
      </trkpt>
      <trkpt lat="45.41317" lon="4.97013">
        <ele>382</ele>
        <time>2023-08-30T21:28:21Z</time>
      </trkpt>
      <trkpt lat="45.41326" lon="4.96983">
        <ele>382</ele>
        <time>2023-08-30T21:28:26Z</time>
      </trkpt>
      <trkpt lat="45.41323" lon="4.96955">
        <ele>384</ele>
        <time>2023-08-30T21:28:31Z</time>
      </trkpt>
      <trkpt lat="45.41314" lon="4.96916">
        <ele>388</ele>
        <time>2023-08-30T21:28:37Z</time>
      </trkpt>
      <trkpt lat="45.41322" lon="4.9689">
        <ele>390</ele>
        <time>2023-08-30T21:28:42Z</time>
      </trkpt>
      <trkpt lat="45.41333" lon="4.96861">
        <ele>392</ele>
        <time>2023-08-30T21:28:47Z</time>
      </trkpt>
      <trkpt lat="45.41346" lon="4.96833">
        <ele>392</ele>
        <time>2023-08-30T21:28:53Z</time>
      </trkpt>
      <trkpt lat="45.41356" lon="4.96803">
        <ele>389</ele>
        <time>2023-08-30T21:28:58Z</time>
      </trkpt>
      <trkpt lat="45.41361" lon="4.96741">
        <ele>389</ele>
        <time>2023-08-30T21:29:08Z</time>
      </trkpt>
      <trkpt lat="45.41369" lon="4.96643">
        <ele>385</ele>
        <time>2023-08-30T21:29:25Z</time>
      </trkpt>
      <trkpt lat="45.41377" lon="4.96549">
        <ele>385</ele>
        <time>2023-08-30T21:29:40Z</time>
      </trkpt>
      <trkpt lat="45.41373" lon="4.96523">
        <ele>386</ele>
        <time>2023-08-30T21:29:45Z</time>
      </trkpt>
      <trkpt lat="45.41375" lon="4.96499">
        <ele>386</ele>
        <time>2023-08-30T21:29:49Z</time>
      </trkpt>
      <trkpt lat="45.41383" lon="4.96482">
        <ele>385</ele>
        <time>2023-08-30T21:29:52Z</time>
      </trkpt>
      <trkpt lat="45.41394" lon="4.96466">
        <ele>383</ele>
        <time>2023-08-30T21:29:56Z</time>
      </trkpt>
      <trkpt lat="45.41396" lon="4.96414">
        <ele>383</ele>
        <time>2023-08-30T21:30:04Z</time>
      </trkpt>
      <trkpt lat="45.41399" lon="4.96332">
        <ele>381</ele>
        <time>2023-08-30T21:30:18Z</time>
      </trkpt>
      <trkpt lat="45.41401" lon="4.9626">
        <ele>380</ele>
        <time>2023-08-30T21:30:29Z</time>
      </trkpt>
      <trkpt lat="45.41395" lon="4.96213">
        <ele>380</ele>
        <time>2023-08-30T21:30:37Z</time>
      </trkpt>
      <trkpt lat="45.41379" lon="4.96166">
        <ele>381</ele>
        <time>2023-08-30T21:30:46Z</time>
      </trkpt>
      <trkpt lat="45.41374" lon="4.9612">
        <ele>381</ele>
        <time>2023-08-30T21:30:53Z</time>
      </trkpt>
      <trkpt lat="45.41365" lon="4.96043">
        <ele>380</ele>
        <time>2023-08-30T21:31:06Z</time>
      </trkpt>
      <trkpt lat="45.41355" lon="4.95982">
        <ele>380</ele>
        <time>2023-08-30T21:31:16Z</time>
      </trkpt>
      <trkpt lat="45.41345" lon="4.9593">
        <ele>378</ele>
        <time>2023-08-30T21:31:25Z</time>
      </trkpt>
      <trkpt lat="45.41299" lon="4.95872">
        <ele>380</ele>
        <time>2023-08-30T21:31:40Z</time>
      </trkpt>
      <trkpt lat="45.41278" lon="4.95835">
        <ele>380</ele>
        <time>2023-08-30T21:31:47Z</time>
      </trkpt>
      <trkpt lat="45.41278" lon="4.95834">
        <ele>380</ele>
        <time>2023-08-30T21:31:48Z</time>
      </trkpt>
      <trkpt lat="45.41323" lon="4.9575">
        <ele>371</ele>
        <time>2023-08-30T21:32:05Z</time>
      </trkpt>
      <trkpt lat="45.41339" lon="4.95684">
        <ele>365</ele>
        <time>2023-08-30T21:32:16Z</time>
      </trkpt>
      <trkpt lat="45.41352" lon="4.95603">
        <ele>358</ele>
        <time>2023-08-30T21:32:30Z</time>
      </trkpt>
      <trkpt lat="45.41351" lon="4.95576">
        <ele>356</ele>
        <time>2023-08-30T21:32:34Z</time>
      </trkpt>
      <trkpt lat="45.41351" lon="4.9556">
        <ele>355</ele>
        <time>2023-08-30T21:32:37Z</time>
      </trkpt>
      <trkpt lat="45.41339" lon="4.9551">
        <ele>352</ele>
        <time>2023-08-30T21:32:46Z</time>
      </trkpt>
      <trkpt lat="45.41318" lon="4.95485">
        <ele>350</ele>
        <time>2023-08-30T21:32:52Z</time>
      </trkpt>
      <trkpt lat="45.41283" lon="4.95458">
        <ele>350</ele>
        <time>2023-08-30T21:33:01Z</time>
      </trkpt>
      <trkpt lat="45.41264" lon="4.95424">
        <ele>348</ele>
        <time>2023-08-30T21:33:08Z</time>
      </trkpt>
      <trkpt lat="45.41263" lon="4.95412">
        <ele>348</ele>
        <time>2023-08-30T21:33:10Z</time>
      </trkpt>
      <trkpt lat="45.41262" lon="4.95407">
        <ele>347</ele>
        <time>2023-08-30T21:33:11Z</time>
      </trkpt>
      <trkpt lat="45.41258" lon="4.95398">
        <ele>347</ele>
        <time>2023-08-30T21:33:13Z</time>
      </trkpt>
      <trkpt lat="45.41257" lon="4.95381">
        <ele>346</ele>
        <time>2023-08-30T21:33:16Z</time>
      </trkpt>
      <trkpt lat="45.41253" lon="4.95372">
        <ele>346</ele>
        <time>2023-08-30T21:33:18Z</time>
      </trkpt>
      <trkpt lat="45.41244" lon="4.95355">
        <ele>346</ele>
        <time>2023-08-30T21:33:21Z</time>
      </trkpt>
      <trkpt lat="45.41243" lon="4.95344">
        <ele>346</ele>
        <time>2023-08-30T21:33:23Z</time>
      </trkpt>
      <trkpt lat="45.41239" lon="4.95331">
        <ele>346</ele>
        <time>2023-08-30T21:33:25Z</time>
      </trkpt>
      <trkpt lat="45.41231" lon="4.95307">
        <ele>347</ele>
        <time>2023-08-30T21:33:30Z</time>
      </trkpt>
      <trkpt lat="45.4122" lon="4.95297">
        <ele>349</ele>
        <time>2023-08-30T21:33:33Z</time>
      </trkpt>
      <trkpt lat="45.41184" lon="4.95239">
        <ele>351</ele>
        <time>2023-08-30T21:33:45Z</time>
      </trkpt>
      <trkpt lat="45.41154" lon="4.95182">
        <ele>351</ele>
        <time>2023-08-30T21:33:57Z</time>
      </trkpt>
      <trkpt lat="45.41141" lon="4.95164">
        <ele>352</ele>
        <time>2023-08-30T21:34:01Z</time>
      </trkpt>
      <trkpt lat="45.41133" lon="4.95128">
        <ele>352</ele>
        <time>2023-08-30T21:34:07Z</time>
      </trkpt>
      <trkpt lat="45.41132" lon="4.95093">
        <ele>350</ele>
        <time>2023-08-30T21:34:13Z</time>
      </trkpt>
      <trkpt lat="45.41134" lon="4.9506">
        <ele>348</ele>
        <time>2023-08-30T21:34:19Z</time>
      </trkpt>
      <trkpt lat="45.41132" lon="4.9504">
        <ele>347</ele>
        <time>2023-08-30T21:34:22Z</time>
      </trkpt>
      <trkpt lat="45.4112" lon="4.95021">
        <ele>348</ele>
        <time>2023-08-30T21:34:26Z</time>
      </trkpt>
      <trkpt lat="45.41113" lon="4.95008">
        <ele>348</ele>
        <time>2023-08-30T21:34:29Z</time>
      </trkpt>
      <trkpt lat="45.41107" lon="4.94958">
        <ele>343</ele>
        <time>2023-08-30T21:34:37Z</time>
      </trkpt>
      <trkpt lat="45.41095" lon="4.94929">
        <ele>339</ele>
        <time>2023-08-30T21:34:43Z</time>
      </trkpt>
      <trkpt lat="45.41076" lon="4.94902">
        <ele>337</ele>
        <time>2023-08-30T21:34:49Z</time>
      </trkpt>
      <trkpt lat="45.4105" lon="4.94871">
        <ele>338</ele>
        <time>2023-08-30T21:34:57Z</time>
      </trkpt>
      <trkpt lat="45.4102" lon="4.94846">
        <ele>338</ele>
        <time>2023-08-30T21:35:05Z</time>
      </trkpt>
      <trkpt lat="45.41001" lon="4.94833">
        <ele>337</ele>
        <time>2023-08-30T21:35:10Z</time>
      </trkpt>
      <trkpt lat="45.40987" lon="4.94806">
        <ele>337</ele>
        <time>2023-08-30T21:35:15Z</time>
      </trkpt>
      <trkpt lat="45.4097" lon="4.94763">
        <ele>335</ele>
        <time>2023-08-30T21:35:23Z</time>
      </trkpt>
      <trkpt lat="45.40952" lon="4.94737">
        <ele>336</ele>
        <time>2023-08-30T21:35:29Z</time>
      </trkpt>
      <trkpt lat="45.40926" lon="4.94701">
        <ele>334</ele>
        <time>2023-08-30T21:35:38Z</time>
      </trkpt>
      <trkpt lat="45.40904" lon="4.94666">
        <ele>330</ele>
        <time>2023-08-30T21:35:46Z</time>
      </trkpt>
      <trkpt lat="45.40886" lon="4.94656">
        <ele>332</ele>
        <time>2023-08-30T21:35:50Z</time>
      </trkpt>
      <trkpt lat="45.4087" lon="4.94639">
        <ele>332</ele>
        <time>2023-08-30T21:35:55Z</time>
      </trkpt>
      <trkpt lat="45.40849" lon="4.94616">
        <ele>331</ele>
        <time>2023-08-30T21:36:01Z</time>
      </trkpt>
      <trkpt lat="45.40826" lon="4.94592">
        <ele>328</ele>
        <time>2023-08-30T21:36:08Z</time>
      </trkpt>
      <trkpt lat="45.40804" lon="4.94576">
        <ele>328</ele>
        <time>2023-08-30T21:36:13Z</time>
      </trkpt>
      <trkpt lat="45.4079" lon="4.94573">
        <ele>328</ele>
        <time>2023-08-30T21:36:17Z</time>
      </trkpt>
      <trkpt lat="45.40771" lon="4.94579">
        <ele>329</ele>
        <time>2023-08-30T21:36:21Z</time>
      </trkpt>
      <trkpt lat="45.40761" lon="4.94569">
        <ele>329</ele>
        <time>2023-08-30T21:36:24Z</time>
      </trkpt>
      <trkpt lat="45.40753" lon="4.94545">
        <ele>326</ele>
        <time>2023-08-30T21:36:28Z</time>
      </trkpt>
      <trkpt lat="45.40734" lon="4.94534">
        <ele>327</ele>
        <time>2023-08-30T21:36:33Z</time>
      </trkpt>
      <trkpt lat="45.40709" lon="4.94522">
        <ele>327</ele>
        <time>2023-08-30T21:36:39Z</time>
      </trkpt>
      <trkpt lat="45.40688" lon="4.94493">
        <ele>325</ele>
        <time>2023-08-30T21:36:46Z</time>
      </trkpt>
      <trkpt lat="45.40644" lon="4.94457">
        <ele>326</ele>
        <time>2023-08-30T21:36:58Z</time>
      </trkpt>
      <trkpt lat="45.40586" lon="4.94417">
        <ele>327</ele>
        <time>2023-08-30T21:37:13Z</time>
      </trkpt>
      <trkpt lat="45.40536" lon="4.94385">
        <ele>323</ele>
        <time>2023-08-30T21:37:26Z</time>
      </trkpt>
      <trkpt lat="45.40551" lon="4.94274">
        <ele>321</ele>
        <time>2023-08-30T21:37:44Z</time>
      </trkpt>
      <trkpt lat="45.40555" lon="4.94231">
        <ele>321</ele>
        <time>2023-08-30T21:37:52Z</time>
      </trkpt>
      <trkpt lat="45.40554" lon="4.94183">
        <ele>320</ele>
        <time>2023-08-30T21:37:59Z</time>
      </trkpt>
      <trkpt lat="45.40588" lon="4.9417">
        <ele>323</ele>
        <time>2023-08-30T21:38:08Z</time>
      </trkpt>
      <trkpt lat="45.40635" lon="4.94185">
        <ele>329</ele>
        <time>2023-08-30T21:38:19Z</time>
      </trkpt>
      <trkpt lat="45.40703" lon="4.94193">
        <ele>336</ele>
        <time>2023-08-30T21:38:35Z</time>
      </trkpt>
      <trkpt lat="45.40749" lon="4.94192">
        <ele>340</ele>
        <time>2023-08-30T21:38:46Z</time>
      </trkpt>
      <trkpt lat="45.40788" lon="4.94185">
        <ele>345</ele>
        <time>2023-08-30T21:38:55Z</time>
      </trkpt>
      <trkpt lat="45.40818" lon="4.94199">
        <ele>347</ele>
        <time>2023-08-30T21:39:02Z</time>
      </trkpt>
      <trkpt lat="45.40849" lon="4.94211">
        <ele>349</ele>
        <time>2023-08-30T21:39:10Z</time>
      </trkpt>
      <trkpt lat="45.40893" lon="4.94204">
        <ele>352</ele>
        <time>2023-08-30T21:39:20Z</time>
      </trkpt>
      <trkpt lat="45.4092" lon="4.94209">
        <ele>354</ele>
        <time>2023-08-30T21:39:26Z</time>
      </trkpt>
      <trkpt lat="45.40929" lon="4.94235">
        <ele>354</ele>
        <time>2023-08-30T21:39:31Z</time>
      </trkpt>
      <trkpt lat="45.40939" lon="4.94268">
        <ele>355</ele>
        <time>2023-08-30T21:39:37Z</time>
      </trkpt>
      <trkpt lat="45.40974" lon="4.94288">
        <ele>358</ele>
        <time>2023-08-30T21:39:46Z</time>
      </trkpt>
      <trkpt lat="45.41028" lon="4.9431">
        <ele>363</ele>
        <time>2023-08-30T21:39:59Z</time>
      </trkpt>
      <trkpt lat="45.41092" lon="4.94332">
        <ele>372</ele>
        <time>2023-08-30T21:40:14Z</time>
      </trkpt>
      <trkpt lat="45.4113" lon="4.94351">
        <ele>376</ele>
        <time>2023-08-30T21:40:24Z</time>
      </trkpt>
      <trkpt lat="45.41138" lon="4.94331">
        <ele>379</ele>
        <time>2023-08-30T21:40:27Z</time>
      </trkpt>
      <trkpt lat="45.41134" lon="4.94315">
        <ele>379</ele>
        <time>2023-08-30T21:40:30Z</time>
      </trkpt>
      <trkpt lat="45.41095" lon="4.94232">
        <ele>376</ele>
        <time>2023-08-30T21:40:47Z</time>
      </trkpt>
      <trkpt lat="45.41082" lon="4.94192">
        <ele>374</ele>
        <time>2023-08-30T21:40:54Z</time>
      </trkpt>
      <trkpt lat="45.4108" lon="4.94144">
        <ele>374</ele>
        <time>2023-08-30T21:41:02Z</time>
      </trkpt>
      <trkpt lat="45.41076" lon="4.94044">
        <ele>374</ele>
        <time>2023-08-30T21:41:18Z</time>
      </trkpt>
      <trkpt lat="45.41083" lon="4.93984">
        <ele>376</ele>
        <time>2023-08-30T21:41:28Z</time>
      </trkpt>
      <trkpt lat="45.41099" lon="4.93916">
        <ele>382</ele>
        <time>2023-08-30T21:41:40Z</time>
      </trkpt>
      <trkpt lat="45.41098" lon="4.93906">
        <ele>383</ele>
        <time>2023-08-30T21:41:42Z</time>
      </trkpt>
      <trkpt lat="45.41093" lon="4.93899">
        <ele>383</ele>
        <time>2023-08-30T21:41:43Z</time>
      </trkpt>
      <trkpt lat="45.41085" lon="4.93898">
        <ele>382</ele>
        <time>2023-08-30T21:41:45Z</time>
      </trkpt>
      <trkpt lat="45.41072" lon="4.93904">
        <ele>379</ele>
        <time>2023-08-30T21:41:48Z</time>
      </trkpt>
      <trkpt lat="45.41053" lon="4.93904">
        <ele>377</ele>
        <time>2023-08-30T21:41:53Z</time>
      </trkpt>
      <trkpt lat="45.41024" lon="4.93904">
        <ele>374</ele>
        <time>2023-08-30T21:41:59Z</time>
      </trkpt>
      <trkpt lat="45.40984" lon="4.939">
        <ele>371</ele>
        <time>2023-08-30T21:42:09Z</time>
      </trkpt>
      <trkpt lat="45.40976" lon="4.93897">
        <ele>371</ele>
        <time>2023-08-30T21:42:11Z</time>
      </trkpt>
      <trkpt lat="45.40899" lon="4.93835">
        <ele>371</ele>
        <time>2023-08-30T21:42:31Z</time>
      </trkpt>
      <trkpt lat="45.40883" lon="4.93823">
        <ele>371</ele>
        <time>2023-08-30T21:42:36Z</time>
      </trkpt>
      <trkpt lat="45.40877" lon="4.93826">
        <ele>370</ele>
        <time>2023-08-30T21:42:37Z</time>
      </trkpt>
      <trkpt lat="45.40863" lon="4.93805">
        <ele>370</ele>
        <time>2023-08-30T21:42:42Z</time>
      </trkpt>
      <trkpt lat="45.40852" lon="4.93786">
        <ele>370</ele>
        <time>2023-08-30T21:42:46Z</time>
      </trkpt>
      <trkpt lat="45.40841" lon="4.9376">
        <ele>370</ele>
        <time>2023-08-30T21:42:51Z</time>
      </trkpt>
      <trkpt lat="45.40837" lon="4.93749">
        <ele>371</ele>
        <time>2023-08-30T21:42:53Z</time>
      </trkpt>
      <trkpt lat="45.40833" lon="4.93729">
        <ele>371</ele>
        <time>2023-08-30T21:42:56Z</time>
      </trkpt>
      <trkpt lat="45.40824" lon="4.93649">
        <ele>373</ele>
        <time>2023-08-30T21:43:10Z</time>
      </trkpt>
      <trkpt lat="45.40806" lon="4.93624">
        <ele>371</ele>
        <time>2023-08-30T21:43:15Z</time>
      </trkpt>
      <trkpt lat="45.40792" lon="4.93582">
        <ele>370</ele>
        <time>2023-08-30T21:43:23Z</time>
      </trkpt>
      <trkpt lat="45.40789" lon="4.93567">
        <ele>369</ele>
        <time>2023-08-30T21:43:26Z</time>
      </trkpt>
      <trkpt lat="45.40785" lon="4.9354">
        <ele>367</ele>
        <time>2023-08-30T21:43:30Z</time>
      </trkpt>
      <trkpt lat="45.40788" lon="4.93526">
        <ele>366</ele>
        <time>2023-08-30T21:43:33Z</time>
      </trkpt>
      <trkpt lat="45.408" lon="4.93483">
        <ele>367</ele>
        <time>2023-08-30T21:43:40Z</time>
      </trkpt>
      <trkpt lat="45.40826" lon="4.93412">
        <ele>369</ele>
        <time>2023-08-30T21:43:53Z</time>
      </trkpt>
      <trkpt lat="45.40824" lon="4.9339">
        <ele>370</ele>
        <time>2023-08-30T21:43:57Z</time>
      </trkpt>
      <trkpt lat="45.40799" lon="4.93375">
        <ele>367</ele>
        <time>2023-08-30T21:44:03Z</time>
      </trkpt>
      <trkpt lat="45.40796" lon="4.93372">
        <ele>367</ele>
        <time>2023-08-30T21:44:04Z</time>
      </trkpt>
      <trkpt lat="45.40766" lon="4.93331">
        <ele>366</ele>
        <time>2023-08-30T21:44:14Z</time>
      </trkpt>
      <trkpt lat="45.40691" lon="4.93268">
        <ele>366</ele>
        <time>2023-08-30T21:44:34Z</time>
      </trkpt>
      <trkpt lat="45.40674" lon="4.93243">
        <ele>366</ele>
        <time>2023-08-30T21:44:40Z</time>
      </trkpt>
      <trkpt lat="45.40705" lon="4.93227">
        <ele>369</ele>
        <time>2023-08-30T21:44:48Z</time>
      </trkpt>
      <trkpt lat="45.40732" lon="4.93205">
        <ele>373</ele>
        <time>2023-08-30T21:44:55Z</time>
      </trkpt>
      <trkpt lat="45.40826" lon="4.93167">
        <ele>387</ele>
        <time>2023-08-30T21:45:18Z</time>
      </trkpt>
      <trkpt lat="45.40835" lon="4.93164">
        <ele>388</ele>
        <time>2023-08-30T21:45:20Z</time>
      </trkpt>
      <trkpt lat="45.40857" lon="4.93127">
        <ele>392</ele>
        <time>2023-08-30T21:45:28Z</time>
      </trkpt>
      <trkpt lat="45.40901" lon="4.93112">
        <ele>397</ele>
        <time>2023-08-30T21:45:38Z</time>
      </trkpt>
      <trkpt lat="45.40957" lon="4.93162">
        <ele>400</ele>
        <time>2023-08-30T21:45:54Z</time>
      </trkpt>
      <trkpt lat="45.40965" lon="4.93168">
        <ele>400</ele>
        <time>2023-08-30T21:45:56Z</time>
      </trkpt>
      <trkpt lat="45.41055" lon="4.93282">
        <ele>405</ele>
        <time>2023-08-30T21:46:24Z</time>
      </trkpt>
      <trkpt lat="45.41076" lon="4.93352">
        <ele>406</ele>
        <time>2023-08-30T21:46:37Z</time>
      </trkpt>
      <trkpt lat="45.41105" lon="4.93419">
        <ele>408</ele>
        <time>2023-08-30T21:46:49Z</time>
      </trkpt>
      <trkpt lat="45.41132" lon="4.93471">
        <ele>409</ele>
        <time>2023-08-30T21:47:00Z</time>
      </trkpt>
      <trkpt lat="45.41132" lon="4.93471">
        <ele>409</ele>
        <time>2023-08-30T21:47:00Z</time>
      </trkpt>
      <trkpt lat="45.41132" lon="4.93471">
        <ele>409</ele>
        <time>2023-08-30T21:47:00Z</time>
      </trkpt>
      <trkpt lat="45.41199" lon="4.93571">
        <ele>408</ele>
        <time>2023-08-30T21:47:23Z</time>
      </trkpt>
      <trkpt lat="45.41244" lon="4.93633">
        <ele>407</ele>
        <time>2023-08-30T21:47:37Z</time>
      </trkpt>
      <trkpt lat="45.4129" lon="4.93684">
        <ele>406</ele>
        <time>2023-08-30T21:47:51Z</time>
      </trkpt>
      <trkpt lat="45.4132" lon="4.93723">
        <ele>407</ele>
        <time>2023-08-30T21:48:00Z</time>
      </trkpt>
      <trkpt lat="45.41325" lon="4.93762">
        <ele>408</ele>
        <time>2023-08-30T21:48:07Z</time>
      </trkpt>
      <trkpt lat="45.41334" lon="4.93795">
        <ele>410</ele>
        <time>2023-08-30T21:48:13Z</time>
      </trkpt>
      <trkpt lat="45.41336" lon="4.93799">
        <ele>410</ele>
        <time>2023-08-30T21:48:14Z</time>
      </trkpt>
      <trkpt lat="45.41334" lon="4.93795">
        <ele>410</ele>
        <time>2023-08-30T21:48:14Z</time>
      </trkpt>
      <trkpt lat="45.41347" lon="4.93793">
        <ele>410</ele>
        <time>2023-08-30T21:48:17Z</time>
      </trkpt>
      <trkpt lat="45.41364" lon="4.93799">
        <ele>410</ele>
        <time>2023-08-30T21:48:21Z</time>
      </trkpt>
      <trkpt lat="45.41373" lon="4.93804">
        <ele>411</ele>
        <time>2023-08-30T21:48:24Z</time>
      </trkpt>
      <trkpt lat="45.41419" lon="4.93847">
        <ele>413</ele>
        <time>2023-08-30T21:48:37Z</time>
      </trkpt>
      <trkpt lat="45.41447" lon="4.93876">
        <ele>408</ele>
        <time>2023-08-30T21:48:45Z</time>
      </trkpt>
      <trkpt lat="45.41469" lon="4.93892">
        <ele>405</ele>
        <time>2023-08-30T21:48:50Z</time>
      </trkpt>
      <trkpt lat="45.41484" lon="4.93898">
        <ele>403</ele>
        <time>2023-08-30T21:48:54Z</time>
      </trkpt>
      <trkpt lat="45.41505" lon="4.93901">
        <ele>400</ele>
        <time>2023-08-30T21:48:59Z</time>
      </trkpt>
      <trkpt lat="45.41513" lon="4.93897">
        <ele>398</ele>
        <time>2023-08-30T21:49:01Z</time>
      </trkpt>
      <trkpt lat="45.41518" lon="4.9389">
        <ele>397</ele>
        <time>2023-08-30T21:49:03Z</time>
      </trkpt>
      <trkpt lat="45.41521" lon="4.93879">
        <ele>396</ele>
        <time>2023-08-30T21:49:05Z</time>
      </trkpt>
      <trkpt lat="45.41522" lon="4.93869">
        <ele>396</ele>
        <time>2023-08-30T21:49:06Z</time>
      </trkpt>
      <trkpt lat="45.41513" lon="4.93824">
        <ele>396</ele>
        <time>2023-08-30T21:49:14Z</time>
      </trkpt>
      <trkpt lat="45.41478" lon="4.93702">
        <ele>397</ele>
        <time>2023-08-30T21:49:35Z</time>
      </trkpt>
      <trkpt lat="45.4147" lon="4.93667">
        <ele>397</ele>
        <time>2023-08-30T21:49:42Z</time>
      </trkpt>
      <trkpt lat="45.41468" lon="4.93658">
        <ele>397</ele>
        <time>2023-08-30T21:49:43Z</time>
      </trkpt>
      <trkpt lat="45.41466" lon="4.93621">
        <ele>397</ele>
        <time>2023-08-30T21:49:49Z</time>
      </trkpt>
      <trkpt lat="45.41471" lon="4.93588">
        <ele>396</ele>
        <time>2023-08-30T21:49:55Z</time>
      </trkpt>
      <trkpt lat="45.41476" lon="4.93569">
        <ele>395</ele>
        <time>2023-08-30T21:49:58Z</time>
      </trkpt>
      <trkpt lat="45.41491" lon="4.93542">
        <ele>394</ele>
        <time>2023-08-30T21:50:04Z</time>
      </trkpt>
      <trkpt lat="45.41505" lon="4.93511">
        <ele>393</ele>
        <time>2023-08-30T21:50:10Z</time>
      </trkpt>
      <trkpt lat="45.41519" lon="4.93484">
        <ele>393</ele>
        <time>2023-08-30T21:50:15Z</time>
      </trkpt>
      <trkpt lat="45.41538" lon="4.9346">
        <ele>392</ele>
        <time>2023-08-30T21:50:21Z</time>
      </trkpt>
      <trkpt lat="45.41581" lon="4.93414">
        <ele>388</ele>
        <time>2023-08-30T21:50:34Z</time>
      </trkpt>
      <trkpt lat="45.41592" lon="4.93402">
        <ele>388</ele>
        <time>2023-08-30T21:50:37Z</time>
      </trkpt>
      <trkpt lat="45.41602" lon="4.93387">
        <ele>388</ele>
        <time>2023-08-30T21:50:40Z</time>
      </trkpt>
      <trkpt lat="45.41618" lon="4.93359">
        <ele>388</ele>
        <time>2023-08-30T21:50:46Z</time>
      </trkpt>
      <trkpt lat="45.4167" lon="4.93276">
        <ele>385</ele>
        <time>2023-08-30T21:51:04Z</time>
      </trkpt>
      <trkpt lat="45.41695" lon="4.93197">
        <ele>383</ele>
        <time>2023-08-30T21:51:19Z</time>
      </trkpt>
      <trkpt lat="45.41694" lon="4.93176">
        <ele>382</ele>
        <time>2023-08-30T21:51:22Z</time>
      </trkpt>
      <trkpt lat="45.41651" lon="4.93028">
        <ele>379</ele>
        <time>2023-08-30T21:51:48Z</time>
      </trkpt>
      <trkpt lat="45.4164" lon="4.92975">
        <ele>380</ele>
        <time>2023-08-30T21:51:57Z</time>
      </trkpt>
      <trkpt lat="45.41638" lon="4.9295">
        <ele>380</ele>
        <time>2023-08-30T21:52:02Z</time>
      </trkpt>
      <trkpt lat="45.41632" lon="4.92897">
        <ele>383</ele>
        <time>2023-08-30T21:52:10Z</time>
      </trkpt>
      <trkpt lat="45.41636" lon="4.92847">
        <ele>385</ele>
        <time>2023-08-30T21:52:19Z</time>
      </trkpt>
      <trkpt lat="45.41646" lon="4.92818">
        <ele>384</ele>
        <time>2023-08-30T21:52:24Z</time>
      </trkpt>
      <trkpt lat="45.41647" lon="4.928">
        <ele>385</ele>
        <time>2023-08-30T21:52:27Z</time>
      </trkpt>
      <trkpt lat="45.41648" lon="4.92732">
        <ele>390</ele>
        <time>2023-08-30T21:52:38Z</time>
      </trkpt>
      <trkpt lat="45.41647" lon="4.92712">
        <ele>392</ele>
        <time>2023-08-30T21:52:41Z</time>
      </trkpt>
      <trkpt lat="45.41643" lon="4.92703">
        <ele>392</ele>
        <time>2023-08-30T21:52:43Z</time>
      </trkpt>
      <trkpt lat="45.41632" lon="4.92699">
        <ele>394</ele>
        <time>2023-08-30T21:52:46Z</time>
      </trkpt>
      <trkpt lat="45.41626" lon="4.92697">
        <ele>395</ele>
        <time>2023-08-30T21:52:47Z</time>
      </trkpt>
      <trkpt lat="45.41603" lon="4.92705">
        <ele>397</ele>
        <time>2023-08-30T21:52:53Z</time>
      </trkpt>
      <trkpt lat="45.41589" lon="4.92704">
        <ele>398</ele>
        <time>2023-08-30T21:52:56Z</time>
      </trkpt>
      <trkpt lat="45.4158" lon="4.92698">
        <ele>400</ele>
        <time>2023-08-30T21:52:58Z</time>
      </trkpt>
      <trkpt lat="45.41575" lon="4.92678">
        <ele>400</ele>
        <time>2023-08-30T21:53:02Z</time>
      </trkpt>
      <trkpt lat="45.41567" lon="4.92671">
        <ele>401</ele>
        <time>2023-08-30T21:53:04Z</time>
      </trkpt>
      <trkpt lat="45.41548" lon="4.92661">
        <ele>402</ele>
        <time>2023-08-30T21:53:09Z</time>
      </trkpt>
      <trkpt lat="45.415" lon="4.92644">
        <ele>405</ele>
        <time>2023-08-30T21:53:20Z</time>
      </trkpt>
      <trkpt lat="45.41486" lon="4.9263">
        <ele>405</ele>
        <time>2023-08-30T21:53:24Z</time>
      </trkpt>
      <trkpt lat="45.41473" lon="4.92625">
        <ele>405</ele>
        <time>2023-08-30T21:53:27Z</time>
      </trkpt>
      <trkpt lat="45.41462" lon="4.92628">
        <ele>405</ele>
        <time>2023-08-30T21:53:30Z</time>
      </trkpt>
      <trkpt lat="45.41462" lon="4.92626">
        <ele>405</ele>
        <time>2023-08-30T21:53:30Z</time>
      </trkpt>
      <trkpt lat="45.41455" lon="4.92556">
        <ele>404</ele>
        <time>2023-08-30T21:53:42Z</time>
      </trkpt>
      <trkpt lat="45.41439" lon="4.92501">
        <ele>402</ele>
        <time>2023-08-30T21:53:52Z</time>
      </trkpt>
      <trkpt lat="45.41434" lon="4.92485">
        <ele>402</ele>
        <time>2023-08-30T21:53:55Z</time>
      </trkpt>
      <trkpt lat="45.41401" lon="4.92415">
        <ele>401</ele>
        <time>2023-08-30T21:54:08Z</time>
      </trkpt>
      <trkpt lat="45.4132" lon="4.92334">
        <ele>398</ele>
        <time>2023-08-30T21:54:31Z</time>
      </trkpt>
      <trkpt lat="45.41289" lon="4.92294">
        <ele>399</ele>
        <time>2023-08-30T21:54:41Z</time>
      </trkpt>
      <trkpt lat="45.41274" lon="4.92271">
        <ele>400</ele>
        <time>2023-08-30T21:54:46Z</time>
      </trkpt>
      <trkpt lat="45.41264" lon="4.92251">
        <ele>401</ele>
        <time>2023-08-30T21:54:50Z</time>
      </trkpt>
      <trkpt lat="45.41256" lon="4.92223">
        <ele>402</ele>
        <time>2023-08-30T21:54:55Z</time>
      </trkpt>
      <trkpt lat="45.41256" lon="4.92174">
        <ele>402</ele>
        <time>2023-08-30T21:55:03Z</time>
      </trkpt>
      <trkpt lat="45.41251" lon="4.92117">
        <ele>402</ele>
        <time>2023-08-30T21:55:13Z</time>
      </trkpt>
      <trkpt lat="45.41245" lon="4.92071">
        <ele>402</ele>
        <time>2023-08-30T21:55:20Z</time>
      </trkpt>
      <trkpt lat="45.41244" lon="4.92038">
        <ele>401</ele>
        <time>2023-08-30T21:55:26Z</time>
      </trkpt>
      <trkpt lat="45.41265" lon="4.91879">
        <ele>396</ele>
        <time>2023-08-30T21:55:52Z</time>
      </trkpt>
      <trkpt lat="45.41265" lon="4.91868">
        <ele>396</ele>
        <time>2023-08-30T21:55:54Z</time>
      </trkpt>
      <trkpt lat="45.41264" lon="4.91719">
        <ele>398</ele>
        <time>2023-08-30T21:56:19Z</time>
      </trkpt>
      <trkpt lat="45.41274" lon="4.91626">
        <ele>399</ele>
        <time>2023-08-30T21:56:34Z</time>
      </trkpt>
      <trkpt lat="45.41278" lon="4.91571">
        <ele>398</ele>
        <time>2023-08-30T21:56:43Z</time>
      </trkpt>
      <trkpt lat="45.41275" lon="4.91511">
        <ele>397</ele>
        <time>2023-08-30T21:56:53Z</time>
      </trkpt>
      <trkpt lat="45.41262" lon="4.9147">
        <ele>395</ele>
        <time>2023-08-30T21:57:00Z</time>
      </trkpt>
      <trkpt lat="45.41226" lon="4.91386">
        <ele>391</ele>
        <time>2023-08-30T21:57:17Z</time>
      </trkpt>
      <trkpt lat="45.41197" lon="4.91332">
        <ele>389</ele>
        <time>2023-08-30T21:57:28Z</time>
      </trkpt>
      <trkpt lat="45.41162" lon="4.91288">
        <ele>388</ele>
        <time>2023-08-30T21:57:39Z</time>
      </trkpt>
      <trkpt lat="45.4113" lon="4.91257">
        <ele>389</ele>
        <time>2023-08-30T21:57:48Z</time>
      </trkpt>
      <trkpt lat="45.41037" lon="4.91204">
        <ele>387</ele>
        <time>2023-08-30T21:58:11Z</time>
      </trkpt>
      <trkpt lat="45.41029" lon="4.912">
        <ele>387</ele>
        <time>2023-08-30T21:58:13Z</time>
      </trkpt>
      <trkpt lat="45.40953" lon="4.91178">
        <ele>389</ele>
        <time>2023-08-30T21:58:31Z</time>
      </trkpt>
      <trkpt lat="45.40865" lon="4.91103">
        <ele>390</ele>
        <time>2023-08-30T21:58:55Z</time>
      </trkpt>
      <trkpt lat="45.40788" lon="4.91061">
        <ele>392</ele>
        <time>2023-08-30T21:59:14Z</time>
      </trkpt>
      <trkpt lat="45.40732" lon="4.9099">
        <ele>392</ele>
        <time>2023-08-30T21:59:32Z</time>
      </trkpt>
      <trkpt lat="45.40731" lon="4.90988">
        <ele>392</ele>
        <time>2023-08-30T21:59:32Z</time>
      </trkpt>
      <trkpt lat="45.40732" lon="4.9099">
        <ele>392</ele>
        <time>2023-08-30T21:59:33Z</time>
      </trkpt>
      <trkpt lat="45.40722" lon="4.90944">
        <ele>392</ele>
        <time>2023-08-30T21:59:41Z</time>
      </trkpt>
      <trkpt lat="45.40719" lon="4.90917">
        <ele>391</ele>
        <time>2023-08-30T21:59:45Z</time>
      </trkpt>
      <trkpt lat="45.40719" lon="4.90845">
        <ele>390</ele>
        <time>2023-08-30T21:59:57Z</time>
      </trkpt>
      <trkpt lat="45.40724" lon="4.90744">
        <ele>391</ele>
        <time>2023-08-30T22:00:13Z</time>
      </trkpt>
      <trkpt lat="45.40706" lon="4.90587">
        <ele>388</ele>
        <time>2023-08-30T22:00:39Z</time>
      </trkpt>
      <trkpt lat="45.40691" lon="4.90488">
        <ele>385</ele>
        <time>2023-08-30T22:00:56Z</time>
      </trkpt>
      <trkpt lat="45.40686" lon="4.90401">
        <ele>384</ele>
        <time>2023-08-30T22:01:10Z</time>
      </trkpt>
      <trkpt lat="45.40699" lon="4.90277">
        <ele>384</ele>
        <time>2023-08-30T22:01:31Z</time>
      </trkpt>
      <trkpt lat="45.40711" lon="4.90106">
        <ele>383</ele>
        <time>2023-08-30T22:01:59Z</time>
      </trkpt>
      <trkpt lat="45.4073" lon="4.89974">
        <ele>381</ele>
        <time>2023-08-30T22:02:21Z</time>
      </trkpt>
      <trkpt lat="45.40735" lon="4.899">
        <ele>379</ele>
        <time>2023-08-30T22:02:33Z</time>
      </trkpt>
      <trkpt lat="45.40738" lon="4.8988">
        <ele>378</ele>
        <time>2023-08-30T22:02:37Z</time>
      </trkpt>
      <trkpt lat="45.40755" lon="4.898">
        <ele>373</ele>
        <time>2023-08-30T22:02:50Z</time>
      </trkpt>
      <trkpt lat="45.40753" lon="4.89751">
        <ele>372</ele>
        <time>2023-08-30T22:02:59Z</time>
      </trkpt>
      <trkpt lat="45.40744" lon="4.89713">
        <ele>370</ele>
        <time>2023-08-30T22:03:05Z</time>
      </trkpt>
      <trkpt lat="45.40742" lon="4.89696">
        <ele>370</ele>
        <time>2023-08-30T22:03:08Z</time>
      </trkpt>
      <trkpt lat="45.40746" lon="4.8968">
        <ele>368</ele>
        <time>2023-08-30T22:03:11Z</time>
      </trkpt>
      <trkpt lat="45.40761" lon="4.89659">
        <ele>366</ele>
        <time>2023-08-30T22:03:16Z</time>
      </trkpt>
      <trkpt lat="45.40785" lon="4.89632">
        <ele>364</ele>
        <time>2023-08-30T22:03:23Z</time>
      </trkpt>
      <trkpt lat="45.40797" lon="4.89611">
        <ele>362</ele>
        <time>2023-08-30T22:03:27Z</time>
      </trkpt>
      <trkpt lat="45.40797" lon="4.89612">
        <ele>362</ele>
        <time>2023-08-30T22:03:27Z</time>
      </trkpt>
      <trkpt lat="45.40776" lon="4.89604">
        <ele>364</ele>
        <time>2023-08-30T22:03:32Z</time>
      </trkpt>
      <trkpt lat="45.40745" lon="4.89573">
        <ele>365</ele>
        <time>2023-08-30T22:03:41Z</time>
      </trkpt>
      <trkpt lat="45.40725" lon="4.89563">
        <ele>368</ele>
        <time>2023-08-30T22:03:46Z</time>
      </trkpt>
      <trkpt lat="45.40709" lon="4.89562">
        <ele>370</ele>
        <time>2023-08-30T22:03:50Z</time>
      </trkpt>
      <trkpt lat="45.40663" lon="4.89573">
        <ele>376</ele>
        <time>2023-08-30T22:04:01Z</time>
      </trkpt>
      <trkpt lat="45.40651" lon="4.89583">
        <ele>377</ele>
        <time>2023-08-30T22:04:04Z</time>
      </trkpt>
      <trkpt lat="45.4063" lon="4.8961">
        <ele>379</ele>
        <time>2023-08-30T22:04:11Z</time>
      </trkpt>
      <trkpt lat="45.40618" lon="4.89615">
        <ele>380</ele>
        <time>2023-08-30T22:04:14Z</time>
      </trkpt>
      <trkpt lat="45.40605" lon="4.89613">
        <ele>380</ele>
        <time>2023-08-30T22:04:17Z</time>
      </trkpt>
      <trkpt lat="45.40585" lon="4.89602">
        <ele>380</ele>
        <time>2023-08-30T22:04:22Z</time>
      </trkpt>
      <trkpt lat="45.40565" lon="4.89603">
        <ele>380</ele>
        <time>2023-08-30T22:04:26Z</time>
      </trkpt>
      <trkpt lat="45.40547" lon="4.8962">
        <ele>381</ele>
        <time>2023-08-30T22:04:31Z</time>
      </trkpt>
      <trkpt lat="45.40542" lon="4.89628">
        <ele>381</ele>
        <time>2023-08-30T22:04:33Z</time>
      </trkpt>
      <trkpt lat="45.40522" lon="4.89655">
        <ele>382</ele>
        <time>2023-08-30T22:04:40Z</time>
      </trkpt>
      <trkpt lat="45.4049" lon="4.89707">
        <ele>383</ele>
        <time>2023-08-30T22:04:51Z</time>
      </trkpt>
      <trkpt lat="45.40429" lon="4.89788">
        <ele>385</ele>
        <time>2023-08-30T22:05:10Z</time>
      </trkpt>
      <trkpt lat="45.40429" lon="4.89789">
        <ele>385</ele>
        <time>2023-08-30T22:05:11Z</time>
      </trkpt>
      <trkpt lat="45.40411" lon="4.89718">
        <ele>384</ele>
        <time>2023-08-30T22:05:23Z</time>
      </trkpt>
      <trkpt lat="45.40411" lon="4.89681">
        <ele>382</ele>
        <time>2023-08-30T22:05:29Z</time>
      </trkpt>
      <trkpt lat="45.404" lon="4.89631">
        <ele>377</ele>
        <time>2023-08-30T22:05:38Z</time>
      </trkpt>
      <trkpt lat="45.40399" lon="4.89615">
        <ele>376</ele>
        <time>2023-08-30T22:05:40Z</time>
      </trkpt>
      <trkpt lat="45.40402" lon="4.89598">
        <ele>374</ele>
        <time>2023-08-30T22:05:43Z</time>
      </trkpt>
      <trkpt lat="45.404" lon="4.89582">
        <ele>373</ele>
        <time>2023-08-30T22:05:46Z</time>
      </trkpt>
      <trkpt lat="45.40402" lon="4.89558">
        <ele>371</ele>
        <time>2023-08-30T22:05:50Z</time>
      </trkpt>
      <trkpt lat="45.40408" lon="4.89543">
        <ele>369</ele>
        <time>2023-08-30T22:05:53Z</time>
      </trkpt>
      <trkpt lat="45.40413" lon="4.8953">
        <ele>368</ele>
        <time>2023-08-30T22:05:55Z</time>
      </trkpt>
      <trkpt lat="45.40436" lon="4.89507">
        <ele>366</ele>
        <time>2023-08-30T22:06:02Z</time>
      </trkpt>
      <trkpt lat="45.4046" lon="4.89461">
        <ele>362</ele>
        <time>2023-08-30T22:06:11Z</time>
      </trkpt>
      <trkpt lat="45.40476" lon="4.89439">
        <ele>360</ele>
        <time>2023-08-30T22:06:16Z</time>
      </trkpt>
      <trkpt lat="45.40499" lon="4.89417">
        <ele>359</ele>
        <time>2023-08-30T22:06:23Z</time>
      </trkpt>
      <trkpt lat="45.40524" lon="4.89397">
        <ele>358</ele>
        <time>2023-08-30T22:06:29Z</time>
      </trkpt>
      <trkpt lat="45.40545" lon="4.89366">
        <ele>357</ele>
        <time>2023-08-30T22:06:36Z</time>
      </trkpt>
      <trkpt lat="45.40574" lon="4.89335">
        <ele>356</ele>
        <time>2023-08-30T22:06:45Z</time>
      </trkpt>
      <trkpt lat="45.40607" lon="4.89294">
        <ele>354</ele>
        <time>2023-08-30T22:06:55Z</time>
      </trkpt>
      <trkpt lat="45.40623" lon="4.89283">
        <ele>354</ele>
        <time>2023-08-30T22:06:59Z</time>
      </trkpt>
      <trkpt lat="45.4065" lon="4.89285">
        <ele>355</ele>
        <time>2023-08-30T22:07:06Z</time>
      </trkpt>
      <trkpt lat="45.40681" lon="4.89291">
        <ele>356</ele>
        <time>2023-08-30T22:07:13Z</time>
      </trkpt>
      <trkpt lat="45.40704" lon="4.89308">
        <ele>357</ele>
        <time>2023-08-30T22:07:19Z</time>
      </trkpt>
      <trkpt lat="45.40713" lon="4.89307">
        <ele>357</ele>
        <time>2023-08-30T22:07:21Z</time>
      </trkpt>
      <trkpt lat="45.40731" lon="4.89299">
        <ele>358</ele>
        <time>2023-08-30T22:07:25Z</time>
      </trkpt>
      <trkpt lat="45.40751" lon="4.8929">
        <ele>358</ele>
        <time>2023-08-30T22:07:30Z</time>
      </trkpt>
      <trkpt lat="45.40773" lon="4.8929">
        <ele>359</ele>
        <time>2023-08-30T22:07:35Z</time>
      </trkpt>
      <trkpt lat="45.40783" lon="4.89284">
        <ele>360</ele>
        <time>2023-08-30T22:07:38Z</time>
      </trkpt>
      <trkpt lat="45.40786" lon="4.89266">
        <ele>360</ele>
        <time>2023-08-30T22:07:41Z</time>
      </trkpt>
      <trkpt lat="45.40794" lon="4.89237">
        <ele>361</ele>
        <time>2023-08-30T22:07:46Z</time>
      </trkpt>
      <trkpt lat="45.40819" lon="4.89179">
        <ele>367</ele>
        <time>2023-08-30T22:07:57Z</time>
      </trkpt>
      <trkpt lat="45.40845" lon="4.89137">
        <ele>369</ele>
        <time>2023-08-30T22:08:06Z</time>
      </trkpt>
      <trkpt lat="45.40845" lon="4.89138">
        <ele>369</ele>
        <time>2023-08-30T22:08:07Z</time>
      </trkpt>
      <trkpt lat="45.40821" lon="4.89106">
        <ele>370</ele>
        <time>2023-08-30T22:08:14Z</time>
      </trkpt>
      <trkpt lat="45.40802" lon="4.89077">
        <ele>370</ele>
        <time>2023-08-30T22:08:21Z</time>
      </trkpt>
      <trkpt lat="45.40789" lon="4.89056">
        <ele>370</ele>
        <time>2023-08-30T22:08:25Z</time>
      </trkpt>
      <trkpt lat="45.40775" lon="4.89024">
        <ele>371</ele>
        <time>2023-08-30T22:08:32Z</time>
      </trkpt>
      <trkpt lat="45.40736" lon="4.8896">
        <ele>370</ele>
        <time>2023-08-30T22:08:45Z</time>
      </trkpt>
      <trkpt lat="45.40709" lon="4.88936">
        <ele>369</ele>
        <time>2023-08-30T22:08:53Z</time>
      </trkpt>
      <trkpt lat="45.4066" lon="4.88867">
        <ele>366</ele>
        <time>2023-08-30T22:09:09Z</time>
      </trkpt>
      <trkpt lat="45.4066" lon="4.88865">
        <ele>366</ele>
        <time>2023-08-30T22:09:09Z</time>
      </trkpt>
      <trkpt lat="45.4066" lon="4.88867">
        <ele>366</ele>
        <time>2023-08-30T22:09:10Z</time>
      </trkpt>
      <trkpt lat="45.40638" lon="4.88834">
        <ele>366</ele>
        <time>2023-08-30T22:09:17Z</time>
      </trkpt>
      <trkpt lat="45.40612" lon="4.88782">
        <ele>367</ele>
        <time>2023-08-30T22:09:28Z</time>
      </trkpt>
      <trkpt lat="45.40572" lon="4.88739">
        <ele>369</ele>
        <time>2023-08-30T22:09:39Z</time>
      </trkpt>
      <trkpt lat="45.4054" lon="4.88697">
        <ele>368</ele>
        <time>2023-08-30T22:09:49Z</time>
      </trkpt>
      <trkpt lat="45.40519" lon="4.88656">
        <ele>369</ele>
        <time>2023-08-30T22:09:58Z</time>
      </trkpt>
      <trkpt lat="45.40492" lon="4.88623">
        <ele>370</ele>
        <time>2023-08-30T22:10:06Z</time>
      </trkpt>
      <trkpt lat="45.40473" lon="4.88606">
        <ele>370</ele>
        <time>2023-08-30T22:10:11Z</time>
      </trkpt>
      <trkpt lat="45.4046" lon="4.88596">
        <ele>371</ele>
        <time>2023-08-30T22:10:15Z</time>
      </trkpt>
      <trkpt lat="45.40439" lon="4.8859">
        <ele>371</ele>
        <time>2023-08-30T22:10:20Z</time>
      </trkpt>
      <trkpt lat="45.40434" lon="4.88589">
        <ele>371</ele>
        <time>2023-08-30T22:10:21Z</time>
      </trkpt>
      <trkpt lat="45.40436" lon="4.88625">
        <ele>370</ele>
        <time>2023-08-30T22:10:27Z</time>
      </trkpt>
      <trkpt lat="45.40434" lon="4.88723">
        <ele>365</ele>
        <time>2023-08-30T22:10:43Z</time>
      </trkpt>
      <trkpt lat="45.40427" lon="4.88739">
        <ele>364</ele>
        <time>2023-08-30T22:10:46Z</time>
      </trkpt>
      <trkpt lat="45.40429" lon="4.88763">
        <ele>362</ele>
        <time>2023-08-30T22:10:50Z</time>
      </trkpt>
      <trkpt lat="45.40432" lon="4.88774">
        <ele>362</ele>
        <time>2023-08-30T22:10:52Z</time>
      </trkpt>
      <trkpt lat="45.40428" lon="4.88833">
        <ele>358</ele>
        <time>2023-08-30T22:11:02Z</time>
      </trkpt>
      <trkpt lat="45.40423" lon="4.88863">
        <ele>355</ele>
        <time>2023-08-30T22:11:07Z</time>
      </trkpt>
      <trkpt lat="45.40427" lon="4.88886">
        <ele>354</ele>
        <time>2023-08-30T22:11:11Z</time>
      </trkpt>
      <trkpt lat="45.40426" lon="4.88922">
        <ele>351</ele>
        <time>2023-08-30T22:11:16Z</time>
      </trkpt>
      <trkpt lat="45.40429" lon="4.88963">
        <ele>349</ele>
        <time>2023-08-30T22:11:23Z</time>
      </trkpt>
      <trkpt lat="45.40421" lon="4.8901">
        <ele>346</ele>
        <time>2023-08-30T22:11:31Z</time>
      </trkpt>
      <trkpt lat="45.40414" lon="4.89027">
        <ele>345</ele>
        <time>2023-08-30T22:11:34Z</time>
      </trkpt>
      <trkpt lat="45.40412" lon="4.89044">
        <ele>345</ele>
        <time>2023-08-30T22:11:37Z</time>
      </trkpt>
      <trkpt lat="45.40415" lon="4.8905">
        <ele>345</ele>
        <time>2023-08-30T22:11:38Z</time>
      </trkpt>
      <trkpt lat="45.40418" lon="4.89058">
        <ele>345</ele>
        <time>2023-08-30T22:11:40Z</time>
      </trkpt>
      <trkpt lat="45.40414" lon="4.89079">
        <ele>344</ele>
        <time>2023-08-30T22:11:44Z</time>
      </trkpt>
      <trkpt lat="45.40416" lon="4.89089">
        <ele>344</ele>
        <time>2023-08-30T22:11:45Z</time>
      </trkpt>
      <trkpt lat="45.40415" lon="4.89101">
        <ele>344</ele>
        <time>2023-08-30T22:11:47Z</time>
      </trkpt>
      <trkpt lat="45.40412" lon="4.89112">
        <ele>344</ele>
        <time>2023-08-30T22:11:49Z</time>
      </trkpt>
      <trkpt lat="45.40406" lon="4.89121">
        <ele>344</ele>
        <time>2023-08-30T22:11:51Z</time>
      </trkpt>
      <trkpt lat="45.404" lon="4.89127">
        <ele>344</ele>
        <time>2023-08-30T22:11:53Z</time>
      </trkpt>
      <trkpt lat="45.4036" lon="4.89132">
        <ele>343</ele>
        <time>2023-08-30T22:12:02Z</time>
      </trkpt>
      <trkpt lat="45.40316" lon="4.89134">
        <ele>342</ele>
        <time>2023-08-30T22:12:13Z</time>
      </trkpt>
      <trkpt lat="45.40282" lon="4.89139">
        <ele>342</ele>
        <time>2023-08-30T22:12:21Z</time>
      </trkpt>
      <trkpt lat="45.4024" lon="4.89139">
        <ele>342</ele>
        <time>2023-08-30T22:12:30Z</time>
      </trkpt>
      <trkpt lat="45.40217" lon="4.89136">
        <ele>341</ele>
        <time>2023-08-30T22:12:36Z</time>
      </trkpt>
      <trkpt lat="45.40165" lon="4.89116">
        <ele>339</ele>
        <time>2023-08-30T22:12:48Z</time>
      </trkpt>
      <trkpt lat="45.4016" lon="4.89117">
        <ele>339</ele>
        <time>2023-08-30T22:12:49Z</time>
      </trkpt>
      <trkpt lat="45.40158" lon="4.89136">
        <ele>340</ele>
        <time>2023-08-30T22:12:53Z</time>
      </trkpt>
      <trkpt lat="45.40159" lon="4.89158">
        <ele>342</ele>
        <time>2023-08-30T22:12:56Z</time>
      </trkpt>
      <trkpt lat="45.40166" lon="4.89203">
        <ele>348</ele>
        <time>2023-08-30T22:13:04Z</time>
      </trkpt>
      <trkpt lat="45.40168" lon="4.89419">
        <ele>372</ele>
        <time>2023-08-30T22:13:39Z</time>
      </trkpt>
      <trkpt lat="45.40165" lon="4.89496">
        <ele>377</ele>
        <time>2023-08-30T22:13:52Z</time>
      </trkpt>
      <trkpt lat="45.40162" lon="4.895">
        <ele>377</ele>
        <time>2023-08-30T22:13:53Z</time>
      </trkpt>
      <trkpt lat="45.40183" lon="4.89495">
        <ele>377</ele>
        <time>2023-08-30T22:13:58Z</time>
      </trkpt>
      <trkpt lat="45.40185" lon="4.89524">
        <ele>377</ele>
        <time>2023-08-30T22:14:03Z</time>
      </trkpt>
      <trkpt lat="45.4018" lon="4.89639">
        <ele>380</ele>
        <time>2023-08-30T22:14:21Z</time>
      </trkpt>
      <trkpt lat="45.40179" lon="4.89709">
        <ele>381</ele>
        <time>2023-08-30T22:14:33Z</time>
      </trkpt>
      <trkpt lat="45.40185" lon="4.89784">
        <ele>383</ele>
        <time>2023-08-30T22:14:45Z</time>
      </trkpt>
      <trkpt lat="45.40191" lon="4.89833">
        <ele>383</ele>
        <time>2023-08-30T22:14:53Z</time>
      </trkpt>
      <trkpt lat="45.40191" lon="4.89888">
        <ele>384</ele>
        <time>2023-08-30T22:15:02Z</time>
      </trkpt>
      <trkpt lat="45.40129" lon="4.89945">
        <ele>383</ele>
        <time>2023-08-30T22:15:20Z</time>
      </trkpt>
      <trkpt lat="45.40128" lon="4.89946">
        <ele>383</ele>
        <time>2023-08-30T22:15:20Z</time>
      </trkpt>
      <trkpt lat="45.40205" lon="4.90053">
        <ele>385</ele>
        <time>2023-08-30T22:15:45Z</time>
      </trkpt>
      <trkpt lat="45.40258" lon="4.90133">
        <ele>387</ele>
        <time>2023-08-30T22:16:03Z</time>
      </trkpt>
      <trkpt lat="45.40266" lon="4.90152">
        <ele>388</ele>
        <time>2023-08-30T22:16:07Z</time>
      </trkpt>
      <trkpt lat="45.40267" lon="4.90168">
        <ele>388</ele>
        <time>2023-08-30T22:16:09Z</time>
      </trkpt>
      <trkpt lat="45.40272" lon="4.902">
        <ele>388</ele>
        <time>2023-08-30T22:16:15Z</time>
      </trkpt>
      <trkpt lat="45.40283" lon="4.90249">
        <ele>388</ele>
        <time>2023-08-30T22:16:23Z</time>
      </trkpt>
      <trkpt lat="45.40287" lon="4.90261">
        <ele>388</ele>
        <time>2023-08-30T22:16:25Z</time>
      </trkpt>
      <trkpt lat="45.40341" lon="4.90416">
        <ele>388</ele>
        <time>2023-08-30T22:16:54Z</time>
      </trkpt>
      <trkpt lat="45.40358" lon="4.90454">
        <ele>388</ele>
        <time>2023-08-30T22:17:01Z</time>
      </trkpt>
      <trkpt lat="45.40418" lon="4.90548">
        <ele>390</ele>
        <time>2023-08-30T22:17:22Z</time>
      </trkpt>
      <trkpt lat="45.40454" lon="4.90602">
        <ele>389</ele>
        <time>2023-08-30T22:17:34Z</time>
      </trkpt>
      <trkpt lat="45.40463" lon="4.90623">
        <ele>389</ele>
        <time>2023-08-30T22:17:38Z</time>
      </trkpt>
      <trkpt lat="45.40464" lon="4.90625">
        <ele>389</ele>
        <time>2023-08-30T22:17:39Z</time>
      </trkpt>
      <trkpt lat="45.40463" lon="4.90623">
        <ele>389</ele>
        <time>2023-08-30T22:17:39Z</time>
      </trkpt>
      <trkpt lat="45.40464" lon="4.90679">
        <ele>387</ele>
        <time>2023-08-30T22:17:48Z</time>
      </trkpt>
      <trkpt lat="45.40471" lon="4.90712">
        <ele>386</ele>
        <time>2023-08-30T22:17:54Z</time>
      </trkpt>
      <trkpt lat="45.40472" lon="4.90774">
        <ele>383</ele>
        <time>2023-08-30T22:18:04Z</time>
      </trkpt>
      <trkpt lat="45.40487" lon="4.90801">
        <ele>384</ele>
        <time>2023-08-30T22:18:10Z</time>
      </trkpt>
      <trkpt lat="45.40495" lon="4.90844">
        <ele>383</ele>
        <time>2023-08-30T22:18:17Z</time>
      </trkpt>
      <trkpt lat="45.40499" lon="4.90908">
        <ele>384</ele>
        <time>2023-08-30T22:18:28Z</time>
      </trkpt>
      <trkpt lat="45.40492" lon="4.90969">
        <ele>383</ele>
        <time>2023-08-30T22:18:38Z</time>
      </trkpt>
      <trkpt lat="45.40478" lon="4.91009">
        <ele>381</ele>
        <time>2023-08-30T22:18:45Z</time>
      </trkpt>
      <trkpt lat="45.40443" lon="4.91052">
        <ele>377</ele>
        <time>2023-08-30T22:18:56Z</time>
      </trkpt>
      <trkpt lat="45.40417" lon="4.91122">
        <ele>373</ele>
        <time>2023-08-30T22:19:09Z</time>
      </trkpt>
      <trkpt lat="45.40372" lon="4.91214">
        <ele>366</ele>
        <time>2023-08-30T22:19:27Z</time>
      </trkpt>
      <trkpt lat="45.40331" lon="4.91311">
        <ele>361</ele>
        <time>2023-08-30T22:19:46Z</time>
      </trkpt>
      <trkpt lat="45.40301" lon="4.91374">
        <ele>357</ele>
        <time>2023-08-30T22:19:58Z</time>
      </trkpt>
      <trkpt lat="45.40262" lon="4.91411">
        <ele>352</ele>
        <time>2023-08-30T22:20:09Z</time>
      </trkpt>
      <trkpt lat="45.40222" lon="4.91478">
        <ele>348</ele>
        <time>2023-08-30T22:20:24Z</time>
      </trkpt>
      <trkpt lat="45.40201" lon="4.91514">
        <ele>346</ele>
        <time>2023-08-30T22:20:31Z</time>
      </trkpt>
      <trkpt lat="45.40139" lon="4.91581">
        <ele>340</ele>
        <time>2023-08-30T22:20:49Z</time>
      </trkpt>
      <trkpt lat="45.40099" lon="4.9163">
        <ele>337</ele>
        <time>2023-08-30T22:21:02Z</time>
      </trkpt>
      <trkpt lat="45.40096" lon="4.91654">
        <ele>336</ele>
        <time>2023-08-30T22:21:06Z</time>
      </trkpt>
      <trkpt lat="45.40035" lon="4.91665">
        <ele>332</ele>
        <time>2023-08-30T22:21:20Z</time>
      </trkpt>
      <trkpt lat="45.40016" lon="4.9166">
        <ele>330</ele>
        <time>2023-08-30T22:21:25Z</time>
      </trkpt>
      <trkpt lat="45.39914" lon="4.91659">
        <ele>319</ele>
        <time>2023-08-30T22:21:48Z</time>
      </trkpt>
      <trkpt lat="45.39906" lon="4.91647">
        <ele>318</ele>
        <time>2023-08-30T22:21:51Z</time>
      </trkpt>
      <trkpt lat="45.39899" lon="4.91631">
        <ele>318</ele>
        <time>2023-08-30T22:21:54Z</time>
      </trkpt>
      <trkpt lat="45.39892" lon="4.91613">
        <ele>317</ele>
        <time>2023-08-30T22:21:58Z</time>
      </trkpt>
      <trkpt lat="45.39786" lon="4.91657">
        <ele>306</ele>
        <time>2023-08-30T22:22:23Z</time>
      </trkpt>
      <trkpt lat="45.39739" lon="4.91683">
        <ele>301</ele>
        <time>2023-08-30T22:22:35Z</time>
      </trkpt>
      <trkpt lat="45.39724" lon="4.91682">
        <ele>299</ele>
        <time>2023-08-30T22:22:39Z</time>
      </trkpt>
      <trkpt lat="45.39705" lon="4.91666">
        <ele>296</ele>
        <time>2023-08-30T22:22:44Z</time>
      </trkpt>
      <trkpt lat="45.39688" lon="4.91653">
        <ele>294</ele>
        <time>2023-08-30T22:22:48Z</time>
      </trkpt>
      <trkpt lat="45.39657" lon="4.91654">
        <ele>290</ele>
        <time>2023-08-30T22:22:56Z</time>
      </trkpt>
      <trkpt lat="45.39597" lon="4.91649">
        <ele>285</ele>
        <time>2023-08-30T22:23:10Z</time>
      </trkpt>
      <trkpt lat="45.39594" lon="4.91647">
        <ele>285</ele>
        <time>2023-08-30T22:23:10Z</time>
      </trkpt>
      <trkpt lat="45.3964" lon="4.91727">
        <ele>287</ele>
        <time>2023-08-30T22:23:27Z</time>
      </trkpt>
      <trkpt lat="45.39705" lon="4.91846">
        <ele>290</ele>
        <time>2023-08-30T22:23:52Z</time>
      </trkpt>
      <trkpt lat="45.39682" lon="4.91863">
        <ele>287</ele>
        <time>2023-08-30T22:23:58Z</time>
      </trkpt>
      <trkpt lat="45.39658" lon="4.91869">
        <ele>286</ele>
        <time>2023-08-30T22:24:04Z</time>
      </trkpt>
      <trkpt lat="45.39637" lon="4.91866">
        <ele>289</ele>
        <time>2023-08-30T22:24:09Z</time>
      </trkpt>
      <trkpt lat="45.39624" lon="4.91859">
        <ele>290</ele>
        <time>2023-08-30T22:24:12Z</time>
      </trkpt>
      <trkpt lat="45.39603" lon="4.91837">
        <ele>291</ele>
        <time>2023-08-30T22:24:18Z</time>
      </trkpt>
      <trkpt lat="45.39594" lon="4.91824">
        <ele>291</ele>
        <time>2023-08-30T22:24:21Z</time>
      </trkpt>
      <trkpt lat="45.39568" lon="4.91806">
        <ele>293</ele>
        <time>2023-08-30T22:24:28Z</time>
      </trkpt>
      <trkpt lat="45.39544" lon="4.91798">
        <ele>294</ele>
        <time>2023-08-30T22:24:34Z</time>
      </trkpt>
      <trkpt lat="45.39499" lon="4.91788">
        <ele>298</ele>
        <time>2023-08-30T22:24:44Z</time>
      </trkpt>
      <trkpt lat="45.39482" lon="4.91789">
        <ele>300</ele>
        <time>2023-08-30T22:24:48Z</time>
      </trkpt>
      <trkpt lat="45.39476" lon="4.91792">
        <ele>301</ele>
        <time>2023-08-30T22:24:50Z</time>
      </trkpt>
      <trkpt lat="45.39471" lon="4.91797">
        <ele>301</ele>
        <time>2023-08-30T22:24:51Z</time>
      </trkpt>
      <trkpt lat="45.39453" lon="4.91823">
        <ele>305</ele>
        <time>2023-08-30T22:24:57Z</time>
      </trkpt>
      <trkpt lat="45.39413" lon="4.91877">
        <ele>314</ele>
        <time>2023-08-30T22:25:10Z</time>
      </trkpt>
      <trkpt lat="45.39399" lon="4.91899">
        <ele>318</ele>
        <time>2023-08-30T22:25:15Z</time>
      </trkpt>
      <trkpt lat="45.39414" lon="4.9192">
        <ele>317</ele>
        <time>2023-08-30T22:25:20Z</time>
      </trkpt>
      <trkpt lat="45.3946" lon="4.91958">
        <ele>316</ele>
        <time>2023-08-30T22:25:32Z</time>
      </trkpt>
      <trkpt lat="45.39478" lon="4.91982">
        <ele>317</ele>
        <time>2023-08-30T22:25:38Z</time>
      </trkpt>
      <trkpt lat="45.39493" lon="4.92017">
        <ele>319</ele>
        <time>2023-08-30T22:25:45Z</time>
      </trkpt>
      <trkpt lat="45.39494" lon="4.9202">
        <ele>319</ele>
        <time>2023-08-30T22:25:45Z</time>
      </trkpt>
      <trkpt lat="45.39483" lon="4.92035">
        <ele>321</ele>
        <time>2023-08-30T22:25:49Z</time>
      </trkpt>
      <trkpt lat="45.39463" lon="4.92052">
        <ele>325</ele>
        <time>2023-08-30T22:25:54Z</time>
      </trkpt>
      <trkpt lat="45.39419" lon="4.9208">
        <ele>335</ele>
        <time>2023-08-30T22:26:05Z</time>
      </trkpt>
      <trkpt lat="45.39415" lon="4.92089">
        <ele>337</ele>
        <time>2023-08-30T22:26:07Z</time>
      </trkpt>
      <trkpt lat="45.39422" lon="4.92133">
        <ele>343</ele>
        <time>2023-08-30T22:26:15Z</time>
      </trkpt>
      <trkpt lat="45.39432" lon="4.92167">
        <ele>346</ele>
        <time>2023-08-30T22:26:21Z</time>
      </trkpt>
      <trkpt lat="45.39433" lon="4.92204">
        <ele>350</ele>
        <time>2023-08-30T22:26:27Z</time>
      </trkpt>
      <trkpt lat="45.39448" lon="4.92257">
        <ele>353</ele>
        <time>2023-08-30T22:26:36Z</time>
      </trkpt>
      <trkpt lat="45.39466" lon="4.92325">
        <ele>352</ele>
        <time>2023-08-30T22:26:48Z</time>
      </trkpt>
      <trkpt lat="45.39473" lon="4.92392">
        <ele>356</ele>
        <time>2023-08-30T22:26:59Z</time>
      </trkpt>
      <trkpt lat="45.39473" lon="4.92417">
        <ele>358</ele>
        <time>2023-08-30T22:27:03Z</time>
      </trkpt>
      <trkpt lat="45.39481" lon="4.92454">
        <ele>362</ele>
        <time>2023-08-30T22:27:10Z</time>
      </trkpt>
      <trkpt lat="45.39497" lon="4.92503">
        <ele>368</ele>
        <time>2023-08-30T22:27:18Z</time>
      </trkpt>
      <trkpt lat="45.39502" lon="4.92522">
        <ele>369</ele>
        <time>2023-08-30T22:27:22Z</time>
      </trkpt>
      <trkpt lat="45.39514" lon="4.92534">
        <ele>368</ele>
        <time>2023-08-30T22:27:25Z</time>
      </trkpt>
      <trkpt lat="45.3952" lon="4.92551">
        <ele>368</ele>
        <time>2023-08-30T22:27:28Z</time>
      </trkpt>
      <trkpt lat="45.39525" lon="4.92578">
        <ele>371</ele>
        <time>2023-08-30T22:27:33Z</time>
      </trkpt>
      <trkpt lat="45.3952" lon="4.92604">
        <ele>374</ele>
        <time>2023-08-30T22:27:37Z</time>
      </trkpt>
      <trkpt lat="45.39525" lon="4.92642">
        <ele>375</ele>
        <time>2023-08-30T22:27:44Z</time>
      </trkpt>
      <trkpt lat="45.39515" lon="4.92659">
        <ele>377</ele>
        <time>2023-08-30T22:27:47Z</time>
      </trkpt>
      <trkpt lat="45.39503" lon="4.92661">
        <ele>379</ele>
        <time>2023-08-30T22:27:50Z</time>
      </trkpt>
      <trkpt lat="45.39493" lon="4.92668">
        <ele>380</ele>
        <time>2023-08-30T22:27:53Z</time>
      </trkpt>
      <trkpt lat="45.39478" lon="4.92693">
        <ele>384</ele>
        <time>2023-08-30T22:27:58Z</time>
      </trkpt>
      <trkpt lat="45.39476" lon="4.92715">
        <ele>386</ele>
        <time>2023-08-30T22:28:02Z</time>
      </trkpt>
      <trkpt lat="45.39484" lon="4.92736">
        <ele>388</ele>
        <time>2023-08-30T22:28:06Z</time>
      </trkpt>
      <trkpt lat="45.39484" lon="4.92767">
        <ele>391</ele>
        <time>2023-08-30T22:28:11Z</time>
      </trkpt>
      <trkpt lat="45.39486" lon="4.92784">
        <ele>393</ele>
        <time>2023-08-30T22:28:14Z</time>
      </trkpt>
      <trkpt lat="45.39498" lon="4.92787">
        <ele>393</ele>
        <time>2023-08-30T22:28:16Z</time>
      </trkpt>
      <trkpt lat="45.39526" lon="4.92789">
        <ele>391</ele>
        <time>2023-08-30T22:28:23Z</time>
      </trkpt>
      <trkpt lat="45.39546" lon="4.92794">
        <ele>390</ele>
        <time>2023-08-30T22:28:28Z</time>
      </trkpt>
      <trkpt lat="45.39561" lon="4.92803">
        <ele>391</ele>
        <time>2023-08-30T22:28:31Z</time>
      </trkpt>
      <trkpt lat="45.39574" lon="4.9282">
        <ele>392</ele>
        <time>2023-08-30T22:28:36Z</time>
      </trkpt>
      <trkpt lat="45.39582" lon="4.92832">
        <ele>393</ele>
        <time>2023-08-30T22:28:38Z</time>
      </trkpt>
      <trkpt lat="45.39593" lon="4.92864">
        <ele>393</ele>
        <time>2023-08-30T22:28:44Z</time>
      </trkpt>
      <trkpt lat="45.39594" lon="4.929">
        <ele>395</ele>
        <time>2023-08-30T22:28:50Z</time>
      </trkpt>
      <trkpt lat="45.39592" lon="4.9295">
        <ele>396</ele>
        <time>2023-08-30T22:28:58Z</time>
      </trkpt>
      <trkpt lat="45.39597" lon="4.92986">
        <ele>395</ele>
        <time>2023-08-30T22:29:04Z</time>
      </trkpt>
      <trkpt lat="45.39612" lon="4.93055">
        <ele>393</ele>
        <time>2023-08-30T22:29:16Z</time>
      </trkpt>
      <trkpt lat="45.39634" lon="4.93113">
        <ele>390</ele>
        <time>2023-08-30T22:29:27Z</time>
      </trkpt>
      <trkpt lat="45.39645" lon="4.9316">
        <ele>390</ele>
        <time>2023-08-30T22:29:35Z</time>
      </trkpt>
      <trkpt lat="45.3964" lon="4.93302">
        <ele>398</ele>
        <time>2023-08-30T22:29:58Z</time>
      </trkpt>
      <trkpt lat="45.39649" lon="4.93337">
        <ele>401</ele>
        <time>2023-08-30T22:30:04Z</time>
      </trkpt>
      <trkpt lat="45.39649" lon="4.93352">
        <ele>401</ele>
        <time>2023-08-30T22:30:07Z</time>
      </trkpt>
      <trkpt lat="45.39639" lon="4.93381">
        <ele>403</ele>
        <time>2023-08-30T22:30:12Z</time>
      </trkpt>
      <trkpt lat="45.39619" lon="4.93429">
        <ele>404</ele>
        <time>2023-08-30T22:30:21Z</time>
      </trkpt>
      <trkpt lat="45.39618" lon="4.93446">
        <ele>403</ele>
        <time>2023-08-30T22:30:24Z</time>
      </trkpt>
      <trkpt lat="45.39617" lon="4.93444">
        <ele>403</ele>
        <time>2023-08-30T22:30:25Z</time>
      </trkpt>
      <trkpt lat="45.3963" lon="4.93465">
        <ele>403</ele>
        <time>2023-08-30T22:30:29Z</time>
      </trkpt>
      <trkpt lat="45.39657" lon="4.93539">
        <ele>404</ele>
        <time>2023-08-30T22:30:43Z</time>
      </trkpt>
      <trkpt lat="45.39665" lon="4.93556">
        <ele>404</ele>
        <time>2023-08-30T22:30:46Z</time>
      </trkpt>
      <trkpt lat="45.39672" lon="4.93577">
        <ele>404</ele>
        <time>2023-08-30T22:30:50Z</time>
      </trkpt>
      <trkpt lat="45.39674" lon="4.936">
        <ele>403</ele>
        <time>2023-08-30T22:30:54Z</time>
      </trkpt>
      <trkpt lat="45.39692" lon="4.93695">
        <ele>403</ele>
        <time>2023-08-30T22:31:10Z</time>
      </trkpt>
      <trkpt lat="45.39709" lon="4.93759">
        <ele>405</ele>
        <time>2023-08-30T22:31:21Z</time>
      </trkpt>
      <trkpt lat="45.39725" lon="4.9383">
        <ele>407</ele>
        <time>2023-08-30T22:31:33Z</time>
      </trkpt>
      <trkpt lat="45.3973" lon="4.93872">
        <ele>407</ele>
        <time>2023-08-30T22:31:40Z</time>
      </trkpt>
      <trkpt lat="45.39731" lon="4.93922">
        <ele>407</ele>
        <time>2023-08-30T22:31:49Z</time>
      </trkpt>
      <trkpt lat="45.39728" lon="4.9396">
        <ele>407</ele>
        <time>2023-08-30T22:31:55Z</time>
      </trkpt>
      <trkpt lat="45.3972" lon="4.94006">
        <ele>408</ele>
        <time>2023-08-30T22:32:03Z</time>
      </trkpt>
      <trkpt lat="45.39714" lon="4.94027">
        <ele>409</ele>
        <time>2023-08-30T22:32:06Z</time>
      </trkpt>
      <trkpt lat="45.397" lon="4.94058">
        <ele>409</ele>
        <time>2023-08-30T22:32:12Z</time>
      </trkpt>
      <trkpt lat="45.39616" lon="4.94202">
        <ele>414</ele>
        <time>2023-08-30T22:32:43Z</time>
      </trkpt>
      <trkpt lat="45.39553" lon="4.94311">
        <ele>417</ele>
        <time>2023-08-30T22:33:06Z</time>
      </trkpt>
      <trkpt lat="45.39514" lon="4.94368">
        <ele>419</ele>
        <time>2023-08-30T22:33:19Z</time>
      </trkpt>
      <trkpt lat="45.39449" lon="4.9445">
        <ele>419</ele>
        <time>2023-08-30T22:33:40Z</time>
      </trkpt>
      <trkpt lat="45.39438" lon="4.94459">
        <ele>419</ele>
        <time>2023-08-30T22:33:43Z</time>
      </trkpt>
      <trkpt lat="45.39411" lon="4.94475">
        <ele>420</ele>
        <time>2023-08-30T22:33:49Z</time>
      </trkpt>
      <trkpt lat="45.39347" lon="4.94499">
        <ele>419</ele>
        <time>2023-08-30T22:34:05Z</time>
      </trkpt>
      <trkpt lat="45.39336" lon="4.94506">
        <ele>419</ele>
        <time>2023-08-30T22:34:08Z</time>
      </trkpt>
      <trkpt lat="45.39317" lon="4.94532">
        <ele>418</ele>
        <time>2023-08-30T22:34:14Z</time>
      </trkpt>
      <trkpt lat="45.39291" lon="4.94567">
        <ele>417</ele>
        <time>2023-08-30T22:34:22Z</time>
      </trkpt>
      <trkpt lat="45.39268" lon="4.94637">
        <ele>417</ele>
        <time>2023-08-30T22:34:35Z</time>
      </trkpt>
      <trkpt lat="45.39239" lon="4.94742">
        <ele>417</ele>
        <time>2023-08-30T22:34:53Z</time>
      </trkpt>
      <trkpt lat="45.39172" lon="4.94861">
        <ele>420</ele>
        <time>2023-08-30T22:35:18Z</time>
      </trkpt>
      <trkpt lat="45.39116" lon="4.94951">
        <ele>421</ele>
        <time>2023-08-30T22:35:38Z</time>
      </trkpt>
      <trkpt lat="45.3908" lon="4.95048">
        <ele>421</ele>
        <time>2023-08-30T22:35:56Z</time>
      </trkpt>
      <trkpt lat="45.39038" lon="4.95154">
        <ele>421</ele>
        <time>2023-08-30T22:36:16Z</time>
      </trkpt>
      <trkpt lat="45.39037" lon="4.95155">
        <ele>421</ele>
        <time>2023-08-30T22:36:16Z</time>
      </trkpt>
      <trkpt lat="45.39048" lon="4.95215">
        <ele>422</ele>
        <time>2023-08-30T22:36:26Z</time>
      </trkpt>
      <trkpt lat="45.3905" lon="4.95238">
        <ele>423</ele>
        <time>2023-08-30T22:36:30Z</time>
      </trkpt>
      <trkpt lat="45.3905" lon="4.95252">
        <ele>423</ele>
        <time>2023-08-30T22:36:33Z</time>
      </trkpt>
      <trkpt lat="45.39042" lon="4.9532">
        <ele>424</ele>
        <time>2023-08-30T22:36:44Z</time>
      </trkpt>
      <trkpt lat="45.39041" lon="4.95337">
        <ele>424</ele>
        <time>2023-08-30T22:36:47Z</time>
      </trkpt>
      <trkpt lat="45.39061" lon="4.95472">
        <ele>424</ele>
        <time>2023-08-30T22:37:09Z</time>
      </trkpt>
      <trkpt lat="45.39078" lon="4.95555">
        <ele>423</ele>
        <time>2023-08-30T22:37:23Z</time>
      </trkpt>
      <trkpt lat="45.391" lon="4.95644">
        <ele>424</ele>
        <time>2023-08-30T22:37:39Z</time>
      </trkpt>
      <trkpt lat="45.39109" lon="4.95696">
        <ele>425</ele>
        <time>2023-08-30T22:37:48Z</time>
      </trkpt>
      <trkpt lat="45.39118" lon="4.95755">
        <ele>426</ele>
        <time>2023-08-30T22:37:58Z</time>
      </trkpt>
      <trkpt lat="45.3912" lon="4.9582">
        <ele>426</ele>
        <time>2023-08-30T22:38:08Z</time>
      </trkpt>
      <trkpt lat="45.39122" lon="4.9586">
        <ele>427</ele>
        <time>2023-08-30T22:38:15Z</time>
      </trkpt>
      <trkpt lat="45.391" lon="4.95923">
        <ele>427</ele>
        <time>2023-08-30T22:38:26Z</time>
      </trkpt>
      <trkpt lat="45.39058" lon="4.96033">
        <ele>426</ele>
        <time>2023-08-30T22:38:47Z</time>
      </trkpt>
      <trkpt lat="45.39045" lon="4.96064">
        <ele>426</ele>
        <time>2023-08-30T22:38:53Z</time>
      </trkpt>
      <trkpt lat="45.39044" lon="4.96066">
        <ele>426</ele>
        <time>2023-08-30T22:38:53Z</time>
      </trkpt>
      <trkpt lat="45.39045" lon="4.96064">
        <ele>426</ele>
        <time>2023-08-30T22:38:54Z</time>
      </trkpt>
      <trkpt lat="45.3913" lon="4.96034">
        <ele>424</ele>
        <time>2023-08-30T22:39:14Z</time>
      </trkpt>
      <trkpt lat="45.39173" lon="4.9601">
        <ele>424</ele>
        <time>2023-08-30T22:39:25Z</time>
      </trkpt>
      <trkpt lat="45.39252" lon="4.9596">
        <ele>424</ele>
        <time>2023-08-30T22:39:45Z</time>
      </trkpt>
      <trkpt lat="45.3928" lon="4.95945">
        <ele>424</ele>
        <time>2023-08-30T22:39:52Z</time>
      </trkpt>
      <trkpt lat="45.3936" lon="4.9592">
        <ele>423</ele>
        <time>2023-08-30T22:40:11Z</time>
      </trkpt>
      <trkpt lat="45.39427" lon="4.95903">
        <ele>421</ele>
        <time>2023-08-30T22:40:27Z</time>
      </trkpt>
      <trkpt lat="45.3945" lon="4.95894">
        <ele>419</ele>
        <time>2023-08-30T22:40:33Z</time>
      </trkpt>
      <trkpt lat="45.39447" lon="4.9589">
        <ele>420</ele>
        <time>2023-08-30T22:40:34Z</time>
      </trkpt>
      <trkpt lat="45.3945" lon="4.95894">
        <ele>419</ele>
        <time>2023-08-30T22:40:35Z</time>
      </trkpt>
      <trkpt lat="45.39463" lon="4.95889">
        <ele>418</ele>
        <time>2023-08-30T22:40:38Z</time>
      </trkpt>
      <trkpt lat="45.39504" lon="4.95887">
        <ele>415</ele>
        <time>2023-08-30T22:40:47Z</time>
      </trkpt>
      <trkpt lat="45.39523" lon="4.95893">
        <ele>414</ele>
        <time>2023-08-30T22:40:52Z</time>
      </trkpt>
      <trkpt lat="45.39543" lon="4.95904">
        <ele>413</ele>
        <time>2023-08-30T22:40:57Z</time>
      </trkpt>
      <trkpt lat="45.39566" lon="4.95924">
        <ele>412</ele>
        <time>2023-08-30T22:41:03Z</time>
      </trkpt>
      <trkpt lat="45.39572" lon="4.95927">
        <ele>412</ele>
        <time>2023-08-30T22:41:05Z</time>
      </trkpt>
      <trkpt lat="45.39607" lon="4.95944">
        <ele>408</ele>
        <time>2023-08-30T22:41:13Z</time>
      </trkpt>
      <trkpt lat="45.39631" lon="4.95952">
        <ele>406</ele>
        <time>2023-08-30T22:41:19Z</time>
      </trkpt>
      <trkpt lat="45.3967" lon="4.9596">
        <ele>402</ele>
        <time>2023-08-30T22:41:28Z</time>
      </trkpt>
      <trkpt lat="45.39691" lon="4.9596">
        <ele>399</ele>
        <time>2023-08-30T22:41:33Z</time>
      </trkpt>
      <trkpt lat="45.39745" lon="4.95976">
        <ele>394</ele>
        <time>2023-08-30T22:41:46Z</time>
      </trkpt>
      <trkpt lat="45.3976" lon="4.95986">
        <ele>391</ele>
        <time>2023-08-30T22:41:50Z</time>
      </trkpt>
      <trkpt lat="45.39789" lon="4.96006">
        <ele>386</ele>
        <time>2023-08-30T22:41:57Z</time>
      </trkpt>
      <trkpt lat="45.39811" lon="4.96006">
        <ele>381</ele>
        <time>2023-08-30T22:42:03Z</time>
      </trkpt>
      <trkpt lat="45.39818" lon="4.9601">
        <ele>380</ele>
        <time>2023-08-30T22:42:04Z</time>
      </trkpt>
      <trkpt lat="45.39851" lon="4.96043">
        <ele>378</ele>
        <time>2023-08-30T22:42:14Z</time>
      </trkpt>
      <trkpt lat="45.39857" lon="4.96055">
        <ele>379</ele>
        <time>2023-08-30T22:42:16Z</time>
      </trkpt>
      <trkpt lat="45.39858" lon="4.96072">
        <ele>380</ele>
        <time>2023-08-30T22:42:19Z</time>
      </trkpt>
      <trkpt lat="45.3986" lon="4.96105">
        <ele>380</ele>
        <time>2023-08-30T22:42:24Z</time>
      </trkpt>
      <trkpt lat="45.39858" lon="4.9613">
        <ele>379</ele>
        <time>2023-08-30T22:42:29Z</time>
      </trkpt>
      <trkpt lat="45.39861" lon="4.96152">
        <ele>379</ele>
        <time>2023-08-30T22:42:32Z</time>
      </trkpt>
      <trkpt lat="45.39873" lon="4.96187">
        <ele>378</ele>
        <time>2023-08-30T22:42:39Z</time>
      </trkpt>
      <trkpt lat="45.39874" lon="4.96212">
        <ele>378</ele>
        <time>2023-08-30T22:42:43Z</time>
      </trkpt>
      <trkpt lat="45.39879" lon="4.96255">
        <ele>380</ele>
        <time>2023-08-30T22:42:50Z</time>
      </trkpt>
      <trkpt lat="45.39888" lon="4.96284">
        <ele>383</ele>
        <time>2023-08-30T22:42:55Z</time>
      </trkpt>
      <trkpt lat="45.3989" lon="4.96308">
        <ele>385</ele>
        <time>2023-08-30T22:42:59Z</time>
      </trkpt>
      <trkpt lat="45.39892" lon="4.96325">
        <ele>386</ele>
        <time>2023-08-30T22:43:02Z</time>
      </trkpt>
      <trkpt lat="45.39899" lon="4.96347">
        <ele>388</ele>
        <time>2023-08-30T22:43:06Z</time>
      </trkpt>
      <trkpt lat="45.39901" lon="4.96367">
        <ele>389</ele>
        <time>2023-08-30T22:43:09Z</time>
      </trkpt>
      <trkpt lat="45.399" lon="4.96399">
        <ele>390</ele>
        <time>2023-08-30T22:43:14Z</time>
      </trkpt>
      <trkpt lat="45.39905" lon="4.96408">
        <ele>391</ele>
        <time>2023-08-30T22:43:16Z</time>
      </trkpt>
      <trkpt lat="45.39884" lon="4.96468">
        <ele>385</ele>
        <time>2023-08-30T22:43:27Z</time>
      </trkpt>
      <trkpt lat="45.39874" lon="4.96519">
        <ele>383</ele>
        <time>2023-08-30T22:43:36Z</time>
      </trkpt>
      <trkpt lat="45.39876" lon="4.96546">
        <ele>384</ele>
        <time>2023-08-30T22:43:40Z</time>
      </trkpt>
      <trkpt lat="45.39874" lon="4.96553">
        <ele>384</ele>
        <time>2023-08-30T22:43:42Z</time>
      </trkpt>
      <trkpt lat="45.39876" lon="4.96546">
        <ele>384</ele>
        <time>2023-08-30T22:43:43Z</time>
      </trkpt>
      <trkpt lat="45.39901" lon="4.96554">
        <ele>384</ele>
        <time>2023-08-30T22:43:49Z</time>
      </trkpt>
      <trkpt lat="45.39953" lon="4.9666">
        <ele>391</ele>
        <time>2023-08-30T22:44:10Z</time>
      </trkpt>
      <trkpt lat="45.39959" lon="4.96676">
        <ele>392</ele>
        <time>2023-08-30T22:44:13Z</time>
      </trkpt>
      <trkpt lat="45.39968" lon="4.96711">
        <ele>394</ele>
        <time>2023-08-30T22:44:19Z</time>
      </trkpt>
      <trkpt lat="45.39973" lon="4.96742">
        <ele>395</ele>
        <time>2023-08-30T22:44:24Z</time>
      </trkpt>
      <trkpt lat="45.3998" lon="4.9677">
        <ele>397</ele>
        <time>2023-08-30T22:44:29Z</time>
      </trkpt>
      <trkpt lat="45.39983" lon="4.96798">
        <ele>397</ele>
        <time>2023-08-30T22:44:34Z</time>
      </trkpt>
      <trkpt lat="45.39985" lon="4.96888">
        <ele>399</ele>
        <time>2023-08-30T22:44:49Z</time>
      </trkpt>
      <trkpt lat="45.39993" lon="4.96921">
        <ele>401</ele>
        <time>2023-08-30T22:44:54Z</time>
      </trkpt>
      <trkpt lat="45.39996" lon="4.96947">
        <ele>401</ele>
        <time>2023-08-30T22:44:59Z</time>
      </trkpt>
      <trkpt lat="45.39991" lon="4.96959">
        <ele>401</ele>
        <time>2023-08-30T22:45:01Z</time>
      </trkpt>
      <trkpt lat="45.39989" lon="4.9697">
        <ele>401</ele>
        <time>2023-08-30T22:45:03Z</time>
      </trkpt>
      <trkpt lat="45.39978" lon="4.97004">
        <ele>401</ele>
        <time>2023-08-30T22:45:09Z</time>
      </trkpt>
      <trkpt lat="45.3997" lon="4.97053">
        <ele>401</ele>
        <time>2023-08-30T22:45:17Z</time>
      </trkpt>
      <trkpt lat="45.39972" lon="4.9707">
        <ele>401</ele>
        <time>2023-08-30T22:45:20Z</time>
      </trkpt>
      <trkpt lat="45.39974" lon="4.97073">
        <ele>402</ele>
        <time>2023-08-30T22:45:21Z</time>
      </trkpt>
      <trkpt lat="45.39972" lon="4.9707">
        <ele>401</ele>
        <time>2023-08-30T22:45:21Z</time>
      </trkpt>
      <trkpt lat="45.3998" lon="4.971">
        <ele>403</ele>
        <time>2023-08-30T22:45:27Z</time>
      </trkpt>
      <trkpt lat="45.39982" lon="4.97118">
        <ele>403</ele>
        <time>2023-08-30T22:45:30Z</time>
      </trkpt>
      <trkpt lat="45.3998" lon="4.97149">
        <ele>404</ele>
        <time>2023-08-30T22:45:35Z</time>
      </trkpt>
      <trkpt lat="45.39989" lon="4.97176">
        <ele>405</ele>
        <time>2023-08-30T22:45:40Z</time>
      </trkpt>
      <trkpt lat="45.3999" lon="4.97201">
        <ele>405</ele>
        <time>2023-08-30T22:45:44Z</time>
      </trkpt>
      <trkpt lat="45.39986" lon="4.97221">
        <ele>405</ele>
        <time>2023-08-30T22:45:47Z</time>
      </trkpt>
      <trkpt lat="45.39963" lon="4.97244">
        <ele>409</ele>
        <time>2023-08-30T22:45:54Z</time>
      </trkpt>
      <trkpt lat="45.39947" lon="4.9725">
        <ele>411</ele>
        <time>2023-08-30T22:45:58Z</time>
      </trkpt>
      <trkpt lat="45.39935" lon="4.97269">
        <ele>413</ele>
        <time>2023-08-30T22:46:02Z</time>
      </trkpt>
      <trkpt lat="45.39929" lon="4.97286">
        <ele>415</ele>
        <time>2023-08-30T22:46:05Z</time>
      </trkpt>
      <trkpt lat="45.39922" lon="4.97296">
        <ele>416</ele>
        <time>2023-08-30T22:46:07Z</time>
      </trkpt>
      <trkpt lat="45.3992" lon="4.97302">
        <ele>417</ele>
        <time>2023-08-30T22:46:08Z</time>
      </trkpt>
      <trkpt lat="45.39918" lon="4.97306">
        <ele>417</ele>
        <time>2023-08-30T22:46:09Z</time>
      </trkpt>
      <trkpt lat="45.39907" lon="4.97312">
        <ele>418</ele>
        <time>2023-08-30T22:46:12Z</time>
      </trkpt>
      <trkpt lat="45.39881" lon="4.97312">
        <ele>421</ele>
        <time>2023-08-30T22:46:18Z</time>
      </trkpt>
      <trkpt lat="45.39811" lon="4.97348">
        <ele>428</ele>
        <time>2023-08-30T22:46:35Z</time>
      </trkpt>
      <trkpt lat="45.39803" lon="4.97372">
        <ele>430</ele>
        <time>2023-08-30T22:46:40Z</time>
      </trkpt>
      <trkpt lat="45.39797" lon="4.97385">
        <ele>431</ele>
        <time>2023-08-30T22:46:42Z</time>
      </trkpt>
      <trkpt lat="45.3978" lon="4.97395">
        <ele>433</ele>
        <time>2023-08-30T22:46:47Z</time>
      </trkpt>
      <trkpt lat="45.39765" lon="4.974">
        <ele>434</ele>
        <time>2023-08-30T22:46:50Z</time>
      </trkpt>
      <trkpt lat="45.39755" lon="4.97407">
        <ele>435</ele>
        <time>2023-08-30T22:46:53Z</time>
      </trkpt>
      <trkpt lat="45.39743" lon="4.9741">
        <ele>436</ele>
        <time>2023-08-30T22:46:56Z</time>
      </trkpt>
      <trkpt lat="45.39722" lon="4.97412">
        <ele>436</ele>
        <time>2023-08-30T22:47:00Z</time>
      </trkpt>
      <trkpt lat="45.3969" lon="4.97426">
        <ele>437</ele>
        <time>2023-08-30T22:47:08Z</time>
      </trkpt>
      <trkpt lat="45.39667" lon="4.9743">
        <ele>437</ele>
        <time>2023-08-30T22:47:14Z</time>
      </trkpt>
      <trkpt lat="45.39644" lon="4.97438">
        <ele>436</ele>
        <time>2023-08-30T22:47:19Z</time>
      </trkpt>
      <trkpt lat="45.39618" lon="4.97443">
        <ele>436</ele>
        <time>2023-08-30T22:47:25Z</time>
      </trkpt>
      <trkpt lat="45.39609" lon="4.97448">
        <ele>436</ele>
        <time>2023-08-30T22:47:28Z</time>
      </trkpt>
      <trkpt lat="45.39588" lon="4.97472">
        <ele>436</ele>
        <time>2023-08-30T22:47:34Z</time>
      </trkpt>
      <trkpt lat="45.39572" lon="4.97497">
        <ele>438</ele>
        <time>2023-08-30T22:47:39Z</time>
      </trkpt>
      <trkpt lat="45.39565" lon="4.97532">
        <ele>438</ele>
        <time>2023-08-30T22:47:45Z</time>
      </trkpt>
      <trkpt lat="45.39558" lon="4.97547">
        <ele>439</ele>
        <time>2023-08-30T22:47:48Z</time>
      </trkpt>
      <trkpt lat="45.3955" lon="4.97554">
        <ele>439</ele>
        <time>2023-08-30T22:47:51Z</time>
      </trkpt>
      <trkpt lat="45.39533" lon="4.97564">
        <ele>438</ele>
        <time>2023-08-30T22:47:55Z</time>
      </trkpt>
      <trkpt lat="45.39522" lon="4.97576">
        <ele>438</ele>
        <time>2023-08-30T22:47:58Z</time>
      </trkpt>
      <trkpt lat="45.39523" lon="4.97594">
        <ele>439</ele>
        <time>2023-08-30T22:48:01Z</time>
      </trkpt>
      <trkpt lat="45.39526" lon="4.97612">
        <ele>439</ele>
        <time>2023-08-30T22:48:04Z</time>
      </trkpt>
      <trkpt lat="45.39521" lon="4.97633">
        <ele>440</ele>
        <time>2023-08-30T22:48:08Z</time>
      </trkpt>
      <trkpt lat="45.39517" lon="4.97642">
        <ele>440</ele>
        <time>2023-08-30T22:48:09Z</time>
      </trkpt>
      <trkpt lat="45.39515" lon="4.97649">
        <ele>440</ele>
        <time>2023-08-30T22:48:11Z</time>
      </trkpt>
      <trkpt lat="45.39502" lon="4.97662">
        <ele>440</ele>
        <time>2023-08-30T22:48:14Z</time>
      </trkpt>
      <trkpt lat="45.39489" lon="4.97682">
        <ele>440</ele>
        <time>2023-08-30T22:48:19Z</time>
      </trkpt>
      <trkpt lat="45.39455" lon="4.9779">
        <ele>440</ele>
        <time>2023-08-30T22:48:38Z</time>
      </trkpt>
      <trkpt lat="45.39446" lon="4.97799">
        <ele>440</ele>
        <time>2023-08-30T22:48:41Z</time>
      </trkpt>
      <trkpt lat="45.39428" lon="4.97808">
        <ele>440</ele>
        <time>2023-08-30T22:48:45Z</time>
      </trkpt>
      <trkpt lat="45.39415" lon="4.97811">
        <ele>439</ele>
        <time>2023-08-30T22:48:48Z</time>
      </trkpt>
      <trkpt lat="45.394" lon="4.97811">
        <ele>438</ele>
        <time>2023-08-30T22:48:52Z</time>
      </trkpt>
      <trkpt lat="45.39377" lon="4.97798">
        <ele>437</ele>
        <time>2023-08-30T22:48:58Z</time>
      </trkpt>
      <trkpt lat="45.39367" lon="4.97797">
        <ele>437</ele>
        <time>2023-08-30T22:49:00Z</time>
      </trkpt>
      <trkpt lat="45.39363" lon="4.978">
        <ele>436</ele>
        <time>2023-08-30T22:49:01Z</time>
      </trkpt>
      <trkpt lat="45.39367" lon="4.97797">
        <ele>437</ele>
        <time>2023-08-30T22:49:02Z</time>
      </trkpt>
      <trkpt lat="45.39361" lon="4.97779">
        <ele>436</ele>
        <time>2023-08-30T22:49:05Z</time>
      </trkpt>
      <trkpt lat="45.39346" lon="4.97708">
        <ele>434</ele>
        <time>2023-08-30T22:49:18Z</time>
      </trkpt>
      <trkpt lat="45.39342" lon="4.97678">
        <ele>434</ele>
        <time>2023-08-30T22:49:23Z</time>
      </trkpt>
      <trkpt lat="45.3934" lon="4.97644">
        <ele>433</ele>
        <time>2023-08-30T22:49:28Z</time>
      </trkpt>
      <trkpt lat="45.39341" lon="4.97588">
        <ele>433</ele>
        <time>2023-08-30T22:49:37Z</time>
      </trkpt>
      <trkpt lat="45.39338" lon="4.97567">
        <ele>433</ele>
        <time>2023-08-30T22:49:41Z</time>
      </trkpt>
      <trkpt lat="45.39329" lon="4.9754">
        <ele>433</ele>
        <time>2023-08-30T22:49:46Z</time>
      </trkpt>
      <trkpt lat="45.39307" lon="4.97505">
        <ele>433</ele>
        <time>2023-08-30T22:49:53Z</time>
      </trkpt>
      <trkpt lat="45.39286" lon="4.97478">
        <ele>432</ele>
        <time>2023-08-30T22:50:00Z</time>
      </trkpt>
      <trkpt lat="45.3922" lon="4.9741">
        <ele>432</ele>
        <time>2023-08-30T22:50:19Z</time>
      </trkpt>
      <trkpt lat="45.39206" lon="4.9739">
        <ele>432</ele>
        <time>2023-08-30T22:50:24Z</time>
      </trkpt>
      <trkpt lat="45.39206" lon="4.97392">
        <ele>432</ele>
        <time>2023-08-30T22:50:24Z</time>
      </trkpt>
      <trkpt lat="45.39203" lon="4.97423">
        <ele>432</ele>
        <time>2023-08-30T22:50:29Z</time>
      </trkpt>
      <trkpt lat="45.39183" lon="4.97503">
        <ele>427</ele>
        <time>2023-08-30T22:50:43Z</time>
      </trkpt>
      <trkpt lat="45.39182" lon="4.97507">
        <ele>427</ele>
        <time>2023-08-30T22:50:44Z</time>
      </trkpt>
      <trkpt lat="45.39192" lon="4.97559">
        <ele>425</ele>
        <time>2023-08-30T22:50:53Z</time>
      </trkpt>
      <trkpt lat="45.39212" lon="4.97637">
        <ele>426</ele>
        <time>2023-08-30T22:51:06Z</time>
      </trkpt>
      <trkpt lat="45.39204" lon="4.97678">
        <ele>425</ele>
        <time>2023-08-30T22:51:13Z</time>
      </trkpt>
      <trkpt lat="45.39163" lon="4.97794">
        <ele>426</ele>
        <time>2023-08-30T22:51:35Z</time>
      </trkpt>
      <trkpt lat="45.39147" lon="4.97815">
        <ele>426</ele>
        <time>2023-08-30T22:51:40Z</time>
      </trkpt>
      <trkpt lat="45.39141" lon="4.97832">
        <ele>427</ele>
        <time>2023-08-30T22:51:43Z</time>
      </trkpt>
      <trkpt lat="45.3911" lon="4.97868">
        <ele>426</ele>
        <time>2023-08-30T22:51:52Z</time>
      </trkpt>
      <trkpt lat="45.39153" lon="4.97879">
        <ele>428</ele>
        <time>2023-08-30T22:52:02Z</time>
      </trkpt>
      <trkpt lat="45.3919" lon="4.97889">
        <ele>430</ele>
        <time>2023-08-30T22:52:11Z</time>
      </trkpt>
      <trkpt lat="45.39233" lon="4.97897">
        <ele>431</ele>
        <time>2023-08-30T22:52:21Z</time>
      </trkpt>
      <trkpt lat="45.39188" lon="4.97999">
        <ele>423</ele>
        <time>2023-08-30T22:52:41Z</time>
      </trkpt>
      <trkpt lat="45.39173" lon="4.98013">
        <ele>420</ele>
        <time>2023-08-30T22:52:45Z</time>
      </trkpt>
      <trkpt lat="45.39154" lon="4.9804">
        <ele>416</ele>
        <time>2023-08-30T22:52:51Z</time>
      </trkpt>
      <trkpt lat="45.39142" lon="4.98077">
        <ele>411</ele>
        <time>2023-08-30T22:52:58Z</time>
      </trkpt>
      <trkpt lat="45.39115" lon="4.98098">
        <ele>407</ele>
        <time>2023-08-30T22:53:05Z</time>
      </trkpt>
      <trkpt lat="45.3907" lon="4.98118">
        <ele>401</ele>
        <time>2023-08-30T22:53:16Z</time>
      </trkpt>
      <trkpt lat="45.39045" lon="4.98143">
        <ele>394</ele>
        <time>2023-08-30T22:53:23Z</time>
      </trkpt>
      <trkpt lat="45.39025" lon="4.98193">
        <ele>387</ele>
        <time>2023-08-30T22:53:33Z</time>
      </trkpt>
      <trkpt lat="45.39009" lon="4.9821">
        <ele>385</ele>
        <time>2023-08-30T22:53:38Z</time>
      </trkpt>
      <trkpt lat="45.38987" lon="4.98218">
        <ele>383</ele>
        <time>2023-08-30T22:53:43Z</time>
      </trkpt>
      <trkpt lat="45.38987" lon="4.98216">
        <ele>384</ele>
        <time>2023-08-30T22:53:43Z</time>
      </trkpt>
      <trkpt lat="45.38987" lon="4.98218">
        <ele>383</ele>
        <time>2023-08-30T22:53:44Z</time>
      </trkpt>
      <trkpt lat="45.38975" lon="4.98329">
        <ele>374</ele>
        <time>2023-08-30T22:54:02Z</time>
      </trkpt>
      <trkpt lat="45.38976" lon="4.98358">
        <ele>374</ele>
        <time>2023-08-30T22:54:07Z</time>
      </trkpt>
      <trkpt lat="45.38991" lon="4.98385">
        <ele>374</ele>
        <time>2023-08-30T22:54:12Z</time>
      </trkpt>
      <trkpt lat="45.3901" lon="4.9841">
        <ele>374</ele>
        <time>2023-08-30T22:54:18Z</time>
      </trkpt>
      <trkpt lat="45.39012" lon="4.98451">
        <ele>375</ele>
        <time>2023-08-30T22:54:25Z</time>
      </trkpt>
      <trkpt lat="45.39011" lon="4.98492">
        <ele>376</ele>
        <time>2023-08-30T22:54:32Z</time>
      </trkpt>
      <trkpt lat="45.39016" lon="4.98563">
        <ele>381</ele>
        <time>2023-08-30T22:54:44Z</time>
      </trkpt>
      <trkpt lat="45.39028" lon="4.98611">
        <ele>386</ele>
        <time>2023-08-30T22:54:52Z</time>
      </trkpt>
      <trkpt lat="45.39005" lon="4.98668">
        <ele>392</ele>
        <time>2023-08-30T22:55:03Z</time>
      </trkpt>
      <trkpt lat="45.38923" lon="4.98726">
        <ele>398</ele>
        <time>2023-08-30T22:55:24Z</time>
      </trkpt>
      <trkpt lat="45.38921" lon="4.98726">
        <ele>398</ele>
        <time>2023-08-30T22:55:25Z</time>
      </trkpt>
      <trkpt lat="45.38923" lon="4.98726">
        <ele>398</ele>
        <time>2023-08-30T22:55:25Z</time>
      </trkpt>
      <trkpt lat="45.38958" lon="4.98742">
        <ele>401</ele>
        <time>2023-08-30T22:55:34Z</time>
      </trkpt>
      <trkpt lat="45.39022" lon="4.98734">
        <ele>402</ele>
        <time>2023-08-30T22:55:49Z</time>
      </trkpt>
      <trkpt lat="45.39096" lon="4.98722">
        <ele>405</ele>
        <time>2023-08-30T22:56:06Z</time>
      </trkpt>
      <trkpt lat="45.39113" lon="4.98715">
        <ele>406</ele>
        <time>2023-08-30T22:56:10Z</time>
      </trkpt>
      <trkpt lat="45.39168" lon="4.9867">
        <ele>404</ele>
        <time>2023-08-30T22:56:25Z</time>
      </trkpt>
      <trkpt lat="45.3923" lon="4.9862">
        <ele>399</ele>
        <time>2023-08-30T22:56:42Z</time>
      </trkpt>
      <trkpt lat="45.39283" lon="4.98569">
        <ele>395</ele>
        <time>2023-08-30T22:56:57Z</time>
      </trkpt>
      <trkpt lat="45.39297" lon="4.98554">
        <ele>394</ele>
        <time>2023-08-30T22:57:01Z</time>
      </trkpt>
      <trkpt lat="45.39325" lon="4.98522">
        <ele>392</ele>
        <time>2023-08-30T22:57:09Z</time>
      </trkpt>
      <trkpt lat="45.39355" lon="4.98506">
        <ele>392</ele>
        <time>2023-08-30T22:57:16Z</time>
      </trkpt>
      <trkpt lat="45.39379" lon="4.98503">
        <ele>393</ele>
        <time>2023-08-30T22:57:22Z</time>
      </trkpt>
      <trkpt lat="45.39396" lon="4.98489">
        <ele>395</ele>
        <time>2023-08-30T22:57:27Z</time>
      </trkpt>
      <trkpt lat="45.39464" lon="4.9839">
        <ele>411</ele>
        <time>2023-08-30T22:57:49Z</time>
      </trkpt>
      <trkpt lat="45.3951" lon="4.9833">
        <ele>422</ele>
        <time>2023-08-30T22:58:04Z</time>
      </trkpt>
      <trkpt lat="45.39573" lon="4.98218">
        <ele>435</ele>
        <time>2023-08-30T22:58:27Z</time>
      </trkpt>
      <trkpt lat="45.39614" lon="4.98087">
        <ele>439</ele>
        <time>2023-08-30T22:58:51Z</time>
      </trkpt>
      <trkpt lat="45.39615" lon="4.98084">
        <ele>439</ele>
        <time>2023-08-30T22:58:52Z</time>
      </trkpt>
      <trkpt lat="45.39686" lon="4.98145">
        <ele>442</ele>
        <time>2023-08-30T22:59:11Z</time>
      </trkpt>
      <trkpt lat="45.39742" lon="4.98209">
        <ele>442</ele>
        <time>2023-08-30T22:59:28Z</time>
      </trkpt>
      <trkpt lat="45.39797" lon="4.98252">
        <ele>443</ele>
        <time>2023-08-30T22:59:42Z</time>
      </trkpt>
      <trkpt lat="45.39848" lon="4.98289">
        <ele>444</ele>
        <time>2023-08-30T22:59:56Z</time>
      </trkpt>
      <trkpt lat="45.39908" lon="4.98322">
        <ele>445</ele>
        <time>2023-08-30T23:00:11Z</time>
      </trkpt>
      <trkpt lat="45.39922" lon="4.98333">
        <ele>445</ele>
        <time>2023-08-30T23:00:14Z</time>
      </trkpt>
      <trkpt lat="45.39996" lon="4.98409">
        <ele>444</ele>
        <time>2023-08-30T23:00:36Z</time>
      </trkpt>
      <trkpt lat="45.4002" lon="4.98437">
        <ele>445</ele>
        <time>2023-08-30T23:00:43Z</time>
      </trkpt>
      <trkpt lat="45.40028" lon="4.98451">
        <ele>445</ele>
        <time>2023-08-30T23:00:46Z</time>
      </trkpt>
      <trkpt lat="45.40062" lon="4.98504">
        <ele>447</ele>
        <time>2023-08-30T23:00:58Z</time>
      </trkpt>
      <trkpt lat="45.40125" lon="4.98619">
        <ele>446</ele>
        <time>2023-08-30T23:01:22Z</time>
      </trkpt>
      <trkpt lat="45.40128" lon="4.9863">
        <ele>446</ele>
        <time>2023-08-30T23:01:24Z</time>
      </trkpt>
      <trkpt lat="45.40131" lon="4.98642">
        <ele>446</ele>
        <time>2023-08-30T23:01:26Z</time>
      </trkpt>
      <trkpt lat="45.4013" lon="4.98646">
        <ele>446</ele>
        <time>2023-08-30T23:01:26Z</time>
      </trkpt>
      <trkpt lat="45.40131" lon="4.98642">
        <ele>446</ele>
        <time>2023-08-30T23:01:27Z</time>
      </trkpt>
      <trkpt lat="45.4015" lon="4.98615">
        <ele>447</ele>
        <time>2023-08-30T23:01:33Z</time>
      </trkpt>
      <trkpt lat="45.40164" lon="4.98587">
        <ele>447</ele>
        <time>2023-08-30T23:01:39Z</time>
      </trkpt>
      <trkpt lat="45.40182" lon="4.98546">
        <ele>449</ele>
        <time>2023-08-30T23:01:47Z</time>
      </trkpt>
      <trkpt lat="45.40186" lon="4.98529">
        <ele>449</ele>
        <time>2023-08-30T23:01:50Z</time>
      </trkpt>
      <trkpt lat="45.40198" lon="4.98454">
        <ele>451</ele>
        <time>2023-08-30T23:02:02Z</time>
      </trkpt>
      <trkpt lat="45.40198" lon="4.98455">
        <ele>451</ele>
        <time>2023-08-30T23:02:03Z</time>
      </trkpt>
      <trkpt lat="45.40212" lon="4.98464">
        <ele>451</ele>
        <time>2023-08-30T23:02:06Z</time>
      </trkpt>
      <trkpt lat="45.40218" lon="4.98463">
        <ele>451</ele>
        <time>2023-08-30T23:02:08Z</time>
      </trkpt>
      <trkpt lat="45.40228" lon="4.98454">
        <ele>451</ele>
        <time>2023-08-30T23:02:10Z</time>
      </trkpt>
      <trkpt lat="45.40255" lon="4.98438">
        <ele>452</ele>
        <time>2023-08-30T23:02:17Z</time>
      </trkpt>
      <trkpt lat="45.40355" lon="4.98404">
        <ele>452</ele>
        <time>2023-08-30T23:02:41Z</time>
      </trkpt>
      <trkpt lat="45.40433" lon="4.98393">
        <ele>451</ele>
        <time>2023-08-30T23:03:00Z</time>
      </trkpt>
      <trkpt lat="45.40475" lon="4.98382">
        <ele>451</ele>
        <time>2023-08-30T23:03:09Z</time>
      </trkpt>
      <trkpt lat="45.40558" lon="4.98353">
        <ele>451</ele>
        <time>2023-08-30T23:03:29Z</time>
      </trkpt>
      <trkpt lat="45.40613" lon="4.98346">
        <ele>450</ele>
        <time>2023-08-30T23:03:42Z</time>
      </trkpt>
      <trkpt lat="45.40632" lon="4.98345">
        <ele>450</ele>
        <time>2023-08-30T23:03:47Z</time>
      </trkpt>
      <trkpt lat="45.40651" lon="4.98341">
        <ele>449</ele>
        <time>2023-08-30T23:03:51Z</time>
      </trkpt>
      <trkpt lat="45.40762" lon="4.98271">
        <ele>445</ele>
        <time>2023-08-30T23:04:20Z</time>
      </trkpt>
      <trkpt lat="45.40782" lon="4.9826">
        <ele>445</ele>
        <time>2023-08-30T23:04:25Z</time>
      </trkpt>
      <trkpt lat="45.40804" lon="4.98253">
        <ele>444</ele>
        <time>2023-08-30T23:04:30Z</time>
      </trkpt>
      <trkpt lat="45.40862" lon="4.98243">
        <ele>439</ele>
        <time>2023-08-30T23:04:44Z</time>
      </trkpt>
      <trkpt lat="45.40909" lon="4.98254">
        <ele>435</ele>
        <time>2023-08-30T23:04:55Z</time>
      </trkpt>
      <trkpt lat="45.40925" lon="4.98258">
        <ele>433</ele>
        <time>2023-08-30T23:04:58Z</time>
      </trkpt>
      <trkpt lat="45.40957" lon="4.9826">
        <ele>430</ele>
        <time>2023-08-30T23:05:06Z</time>
      </trkpt>
      <trkpt lat="45.40965" lon="4.98259">
        <ele>429</ele>
        <time>2023-08-30T23:05:08Z</time>
      </trkpt>
      <trkpt lat="45.40983" lon="4.98251">
        <ele>428</ele>
        <time>2023-08-30T23:05:12Z</time>
      </trkpt>
      <trkpt lat="45.41065" lon="4.98232">
        <ele>422</ele>
        <time>2023-08-30T23:05:32Z</time>
      </trkpt>
      <trkpt lat="45.41114" lon="4.9823">
        <ele>418</ele>
        <time>2023-08-30T23:05:43Z</time>
      </trkpt>
      <trkpt lat="45.41133" lon="4.98228">
        <ele>416</ele>
        <time>2023-08-30T23:05:48Z</time>
      </trkpt>
      <trkpt lat="45.41141" lon="4.98229">
        <ele>416</ele>
        <time>2023-08-30T23:05:49Z</time>
      </trkpt>
      <trkpt lat="45.41147" lon="4.98233">
        <ele>415</ele>
        <time>2023-08-30T23:05:51Z</time>
      </trkpt>
      <trkpt lat="45.41166" lon="4.98232">
        <ele>414</ele>
        <time>2023-08-30T23:05:55Z</time>
      </trkpt>
      <trkpt lat="45.41176" lon="4.98224">
        <ele>412</ele>
        <time>2023-08-30T23:05:58Z</time>
      </trkpt>
      <trkpt lat="45.41188" lon="4.98206">
        <ele>411</ele>
        <time>2023-08-30T23:06:02Z</time>
      </trkpt>
      <trkpt lat="45.412" lon="4.98186">
        <ele>409</ele>
        <time>2023-08-30T23:06:06Z</time>
      </trkpt>
      <trkpt lat="45.41213" lon="4.98174">
        <ele>408</ele>
        <time>2023-08-30T23:06:10Z</time>
      </trkpt>
      <trkpt lat="45.41229" lon="4.98167">
        <ele>407</ele>
        <time>2023-08-30T23:06:14Z</time>
      </trkpt>
      <trkpt lat="45.41254" lon="4.9817">
        <ele>405</ele>
        <time>2023-08-30T23:06:20Z</time>
      </trkpt>
      <trkpt lat="45.41269" lon="4.98167">
        <ele>403</ele>
        <time>2023-08-30T23:06:23Z</time>
      </trkpt>
      <trkpt lat="45.41278" lon="4.98156">
        <ele>402</ele>
        <time>2023-08-30T23:06:26Z</time>
      </trkpt>
      <trkpt lat="45.41282" lon="4.98144">
        <ele>402</ele>
        <time>2023-08-30T23:06:28Z</time>
      </trkpt>
      <trkpt lat="45.41296" lon="4.98146">
        <ele>400</ele>
        <time>2023-08-30T23:06:32Z</time>
      </trkpt>
      <trkpt lat="45.41297" lon="4.98174">
        <ele>401</ele>
        <time>2023-08-30T23:06:36Z</time>
      </trkpt>
      <trkpt lat="45.41298" lon="4.98232">
        <ele>400</ele>
        <time>2023-08-30T23:06:46Z</time>
      </trkpt>
      <trkpt lat="45.41293" lon="4.98281">
        <ele>402</ele>
        <time>2023-08-30T23:06:54Z</time>
      </trkpt>
      <trkpt lat="45.41291" lon="4.98316">
        <ele>403</ele>
        <time>2023-08-30T23:07:00Z</time>
      </trkpt>
      <trkpt lat="45.41299" lon="4.98341">
        <ele>403</ele>
        <time>2023-08-30T23:07:04Z</time>
      </trkpt>
      <trkpt lat="45.41313" lon="4.98383">
        <ele>403</ele>
        <time>2023-08-30T23:07:12Z</time>
      </trkpt>
      <trkpt lat="45.41317" lon="4.98427">
        <ele>404</ele>
        <time>2023-08-30T23:07:19Z</time>
      </trkpt>
      <trkpt lat="45.41303" lon="4.98464">
        <ele>406</ele>
        <time>2023-08-30T23:07:26Z</time>
      </trkpt>
      <trkpt lat="45.41278" lon="4.98482">
        <ele>407</ele>
        <time>2023-08-30T23:07:32Z</time>
      </trkpt>
      <trkpt lat="45.41237" lon="4.98496">
        <ele>409</ele>
        <time>2023-08-30T23:07:42Z</time>
      </trkpt>
      <trkpt lat="45.41228" lon="4.98526">
        <ele>411</ele>
        <time>2023-08-30T23:07:48Z</time>
      </trkpt>
      <trkpt lat="45.41224" lon="4.98544">
        <ele>412</ele>
        <time>2023-08-30T23:07:51Z</time>
      </trkpt>
      <trkpt lat="45.41223" lon="4.98572">
        <ele>413</ele>
        <time>2023-08-30T23:07:55Z</time>
      </trkpt>
      <trkpt lat="45.41226" lon="4.98609">
        <ele>413</ele>
        <time>2023-08-30T23:08:01Z</time>
      </trkpt>
      <trkpt lat="45.4123" lon="4.98634">
        <ele>413</ele>
        <time>2023-08-30T23:08:06Z</time>
      </trkpt>
      <trkpt lat="45.4124" lon="4.98659">
        <ele>412</ele>
        <time>2023-08-30T23:08:10Z</time>
      </trkpt>
      <trkpt lat="45.41246" lon="4.98679">
        <ele>412</ele>
        <time>2023-08-30T23:08:14Z</time>
      </trkpt>
      <trkpt lat="45.4126" lon="4.98705">
        <ele>414</ele>
        <time>2023-08-30T23:08:19Z</time>
      </trkpt>
      <trkpt lat="45.41327" lon="4.98838">
        <ele>414</ele>
        <time>2023-08-30T23:08:46Z</time>
      </trkpt>
      <trkpt lat="45.41348" lon="4.98861">
        <ele>414</ele>
        <time>2023-08-30T23:08:52Z</time>
      </trkpt>
      <trkpt lat="45.41359" lon="4.98894">
        <ele>415</ele>
        <time>2023-08-30T23:08:58Z</time>
      </trkpt>
      <trkpt lat="45.41357" lon="4.98913">
        <ele>415</ele>
        <time>2023-08-30T23:09:01Z</time>
      </trkpt>
      <trkpt lat="45.41349" lon="4.98935">
        <ele>415</ele>
        <time>2023-08-30T23:09:05Z</time>
      </trkpt>
      <trkpt lat="45.4131" lon="4.99028">
        <ele>416</ele>
        <time>2023-08-30T23:09:23Z</time>
      </trkpt>
      <trkpt lat="45.41308" lon="4.99078">
        <ele>418</ele>
        <time>2023-08-30T23:09:31Z</time>
      </trkpt>
      <trkpt lat="45.41309" lon="4.99093">
        <ele>418</ele>
        <time>2023-08-30T23:09:34Z</time>
      </trkpt>
      <trkpt lat="45.41316" lon="4.99119">
        <ele>419</ele>
        <time>2023-08-30T23:09:38Z</time>
      </trkpt>
      <trkpt lat="45.41331" lon="4.9914">
        <ele>420</ele>
        <time>2023-08-30T23:09:43Z</time>
      </trkpt>
      <trkpt lat="45.41339" lon="4.99164">
        <ele>422</ele>
        <time>2023-08-30T23:09:48Z</time>
      </trkpt>
      <trkpt lat="45.41343" lon="4.99206">
        <ele>425</ele>
        <time>2023-08-30T23:09:55Z</time>
      </trkpt>
      <trkpt lat="45.4134" lon="4.99236">
        <ele>425</ele>
        <time>2023-08-30T23:10:00Z</time>
      </trkpt>
      <trkpt lat="45.41331" lon="4.99276">
        <ele>425</ele>
        <time>2023-08-30T23:10:07Z</time>
      </trkpt>
      <trkpt lat="45.41327" lon="4.99314">
        <ele>426</ele>
        <time>2023-08-30T23:10:13Z</time>
      </trkpt>
      <trkpt lat="45.41322" lon="4.99338">
        <ele>427</ele>
        <time>2023-08-30T23:10:17Z</time>
      </trkpt>
      <trkpt lat="45.41307" lon="4.99355">
        <ele>428</ele>
        <time>2023-08-30T23:10:21Z</time>
      </trkpt>
      <trkpt lat="45.41259" lon="4.99403">
        <ele>427</ele>
        <time>2023-08-30T23:10:35Z</time>
      </trkpt>
      <trkpt lat="45.41251" lon="4.99423">
        <ele>426</ele>
        <time>2023-08-30T23:10:39Z</time>
      </trkpt>
      <trkpt lat="45.41243" lon="4.99453">
        <ele>427</ele>
        <time>2023-08-30T23:10:44Z</time>
      </trkpt>
      <trkpt lat="45.41227" lon="4.9948">
        <ele>429</ele>
        <time>2023-08-30T23:10:50Z</time>
      </trkpt>
      <trkpt lat="45.41217" lon="4.99512">
        <ele>431</ele>
        <time>2023-08-30T23:10:56Z</time>
      </trkpt>
      <trkpt lat="45.41213" lon="4.99532">
        <ele>432</ele>
        <time>2023-08-30T23:10:59Z</time>
      </trkpt>
      <trkpt lat="45.41218" lon="4.99556">
        <ele>433</ele>
        <time>2023-08-30T23:11:03Z</time>
      </trkpt>
      <trkpt lat="45.41229" lon="4.99575">
        <ele>434</ele>
        <time>2023-08-30T23:11:07Z</time>
      </trkpt>
      <trkpt lat="45.41235" lon="4.99633">
        <ele>435</ele>
        <time>2023-08-30T23:11:17Z</time>
      </trkpt>
      <trkpt lat="45.41246" lon="4.99661">
        <ele>435</ele>
        <time>2023-08-30T23:11:22Z</time>
      </trkpt>
      <trkpt lat="45.41251" lon="4.99678">
        <ele>435</ele>
        <time>2023-08-30T23:11:25Z</time>
      </trkpt>
      <trkpt lat="45.41249" lon="4.997">
        <ele>434</ele>
        <time>2023-08-30T23:11:29Z</time>
      </trkpt>
      <trkpt lat="45.41252" lon="4.99722">
        <ele>434</ele>
        <time>2023-08-30T23:11:32Z</time>
      </trkpt>
      <trkpt lat="45.4125" lon="4.99765">
        <ele>433</ele>
        <time>2023-08-30T23:11:40Z</time>
      </trkpt>
      <trkpt lat="45.41225" lon="4.99842">
        <ele>437</ele>
        <time>2023-08-30T23:11:53Z</time>
      </trkpt>
      <trkpt lat="45.41204" lon="4.99874">
        <ele>439</ele>
        <time>2023-08-30T23:12:01Z</time>
      </trkpt>
      <trkpt lat="45.41199" lon="4.99884">
        <ele>439</ele>
        <time>2023-08-30T23:12:03Z</time>
      </trkpt>
      <trkpt lat="45.41186" lon="4.99913">
        <ele>439</ele>
        <time>2023-08-30T23:12:08Z</time>
      </trkpt>
      <trkpt lat="45.41185" lon="4.99978">
        <ele>439</ele>
        <time>2023-08-30T23:12:19Z</time>
      </trkpt>
      <trkpt lat="45.41198" lon="5.00005">
        <ele>440</ele>
        <time>2023-08-30T23:12:24Z</time>
      </trkpt>
      <trkpt lat="45.41212" lon="5.00074">
        <ele>440</ele>
        <time>2023-08-30T23:12:36Z</time>
      </trkpt>
      <trkpt lat="45.41213" lon="5.00121">
        <ele>441</ele>
        <time>2023-08-30T23:12:44Z</time>
      </trkpt>
      <trkpt lat="45.41214" lon="5.00125">
        <ele>441</ele>
        <time>2023-08-30T23:12:44Z</time>
      </trkpt>
      <trkpt lat="45.41227" lon="5.00171">
        <ele>443</ele>
        <time>2023-08-30T23:12:53Z</time>
      </trkpt>
      <trkpt lat="45.41233" lon="5.00197">
        <ele>443</ele>
        <time>2023-08-30T23:12:57Z</time>
      </trkpt>
      <trkpt lat="45.41233" lon="5.00235">
        <ele>444</ele>
        <time>2023-08-30T23:13:03Z</time>
      </trkpt>
      <trkpt lat="45.4123" lon="5.00273">
        <ele>445</ele>
        <time>2023-08-30T23:13:10Z</time>
      </trkpt>
      <trkpt lat="45.41231" lon="5.00336">
        <ele>444</ele>
        <time>2023-08-30T23:13:20Z</time>
      </trkpt>
      <trkpt lat="45.41233" lon="5.0035">
        <ele>444</ele>
        <time>2023-08-30T23:13:22Z</time>
      </trkpt>
      <trkpt lat="45.4124" lon="5.00362">
        <ele>443</ele>
        <time>2023-08-30T23:13:25Z</time>
      </trkpt>
      <trkpt lat="45.41257" lon="5.00369">
        <ele>444</ele>
        <time>2023-08-30T23:13:29Z</time>
      </trkpt>
      <trkpt lat="45.41266" lon="5.0039">
        <ele>445</ele>
        <time>2023-08-30T23:13:33Z</time>
      </trkpt>
      <trkpt lat="45.41268" lon="5.00404">
        <ele>445</ele>
        <time>2023-08-30T23:13:35Z</time>
      </trkpt>
      <trkpt lat="45.41264" lon="5.00461">
        <ele>445</ele>
        <time>2023-08-30T23:13:45Z</time>
      </trkpt>
      <trkpt lat="45.41256" lon="5.00503">
        <ele>444</ele>
        <time>2023-08-30T23:13:52Z</time>
      </trkpt>
      <trkpt lat="45.41256" lon="5.00524">
        <ele>445</ele>
        <time>2023-08-30T23:13:55Z</time>
      </trkpt>
      <trkpt lat="45.41282" lon="5.00495">
        <ele>445</ele>
        <time>2023-08-30T23:14:03Z</time>
      </trkpt>
      <trkpt lat="45.41287" lon="5.00474">
        <ele>446</ele>
        <time>2023-08-30T23:14:07Z</time>
      </trkpt>
      <trkpt lat="45.41297" lon="5.00454">
        <ele>447</ele>
        <time>2023-08-30T23:14:11Z</time>
      </trkpt>
      <trkpt lat="45.41318" lon="5.00427">
        <ele>451</ele>
        <time>2023-08-30T23:14:17Z</time>
      </trkpt>
      <trkpt lat="45.41347" lon="5.00376">
        <ele>456</ele>
        <time>2023-08-30T23:14:28Z</time>
      </trkpt>
      <trkpt lat="45.41378" lon="5.0032">
        <ele>460</ele>
        <time>2023-08-30T23:14:40Z</time>
      </trkpt>
      <trkpt lat="45.41387" lon="5.00263">
        <ele>459</ele>
        <time>2023-08-30T23:14:49Z</time>
      </trkpt>
      <trkpt lat="45.41432" lon="5.00156">
        <ele>457</ele>
        <time>2023-08-30T23:15:10Z</time>
      </trkpt>
      <trkpt lat="45.41453" lon="5.00108">
        <ele>456</ele>
        <time>2023-08-30T23:15:19Z</time>
      </trkpt>
      <trkpt lat="45.41487" lon="5.00042">
        <ele>452</ele>
        <time>2023-08-30T23:15:32Z</time>
      </trkpt>
      <trkpt lat="45.41543" lon="4.99943">
        <ele>449</ele>
        <time>2023-08-30T23:15:53Z</time>
      </trkpt>
      <trkpt lat="45.4158" lon="4.99888">
        <ele>449</ele>
        <time>2023-08-30T23:16:06Z</time>
      </trkpt>
      <trkpt lat="45.41597" lon="4.99888">
        <ele>448</ele>
        <time>2023-08-30T23:16:10Z</time>
      </trkpt>
      <trkpt lat="45.41602" lon="4.9987">
        <ele>448</ele>
        <time>2023-08-30T23:16:13Z</time>
      </trkpt>
      <trkpt lat="45.41657" lon="4.99755">
        <ele>449</ele>
        <time>2023-08-30T23:16:36Z</time>
      </trkpt>
      <trkpt lat="45.41666" lon="4.99733">
        <ele>449</ele>
        <time>2023-08-30T23:16:40Z</time>
      </trkpt>
      <trkpt lat="45.41698" lon="4.99633">
        <ele>450</ele>
        <time>2023-08-30T23:16:58Z</time>
      </trkpt>
      <trkpt lat="45.41713" lon="4.99584">
        <ele>450</ele>
        <time>2023-08-30T23:17:07Z</time>
      </trkpt>
      <trkpt lat="45.41735" lon="4.99507">
        <ele>449</ele>
        <time>2023-08-30T23:17:20Z</time>
      </trkpt>
      <trkpt lat="45.41741" lon="4.9947">
        <ele>449</ele>
        <time>2023-08-30T23:17:27Z</time>
      </trkpt>
      <trkpt lat="45.41744" lon="4.99435">
        <ele>448</ele>
        <time>2023-08-30T23:17:32Z</time>
      </trkpt>
      <trkpt lat="45.41745" lon="4.99365">
        <ele>447</ele>
        <time>2023-08-30T23:17:44Z</time>
      </trkpt>
      <trkpt lat="45.41749" lon="4.9934">
        <ele>446</ele>
        <time>2023-08-30T23:17:48Z</time>
      </trkpt>
      <trkpt lat="45.41784" lon="4.99209">
        <ele>444</ele>
        <time>2023-08-30T23:18:11Z</time>
      </trkpt>
      <trkpt lat="45.41786" lon="4.99178">
        <ele>444</ele>
        <time>2023-08-30T23:18:16Z</time>
      </trkpt>
      <trkpt lat="45.41781" lon="4.99142">
        <ele>444</ele>
        <time>2023-08-30T23:18:22Z</time>
      </trkpt>
      <trkpt lat="45.41759" lon="4.99068">
        <ele>446</ele>
        <time>2023-08-30T23:18:35Z</time>
      </trkpt>
      <trkpt lat="45.41755" lon="4.98968">
        <ele>447</ele>
        <time>2023-08-30T23:18:52Z</time>
      </trkpt>
      <trkpt lat="45.4176" lon="4.98873">
        <ele>442</ele>
        <time>2023-08-30T23:19:07Z</time>
      </trkpt>
      <trkpt lat="45.41786" lon="4.985">
        <ele>443</ele>
        <time>2023-08-30T23:20:09Z</time>
      </trkpt>
      <trkpt lat="45.41794" lon="4.98454">
        <ele>443</ele>
        <time>2023-08-30T23:20:17Z</time>
      </trkpt>
      <trkpt lat="45.4181" lon="4.98422">
        <ele>443</ele>
        <time>2023-08-30T23:20:23Z</time>
      </trkpt>
      <trkpt lat="45.41822" lon="4.98406">
        <ele>443</ele>
        <time>2023-08-30T23:20:27Z</time>
      </trkpt>
      <trkpt lat="45.41839" lon="4.9839">
        <ele>443</ele>
        <time>2023-08-30T23:20:32Z</time>
      </trkpt>
      <trkpt lat="45.4186" lon="4.98383">
        <ele>443</ele>
        <time>2023-08-30T23:20:37Z</time>
      </trkpt>
      <trkpt lat="45.41899" lon="4.98378">
        <ele>443</ele>
        <time>2023-08-30T23:20:46Z</time>
      </trkpt>
      <trkpt lat="45.41922" lon="4.98369">
        <ele>442</ele>
        <time>2023-08-30T23:20:51Z</time>
      </trkpt>
      <trkpt lat="45.42049" lon="4.98307">
        <ele>437</ele>
        <time>2023-08-30T23:21:23Z</time>
      </trkpt>
      <trkpt lat="45.42075" lon="4.98286">
        <ele>436</ele>
        <time>2023-08-30T23:21:30Z</time>
      </trkpt>
      <trkpt lat="45.4211" lon="4.98277">
        <ele>436</ele>
        <time>2023-08-30T23:21:38Z</time>
      </trkpt>
      <trkpt lat="45.4218" lon="4.98274">
        <ele>436</ele>
        <time>2023-08-30T23:21:54Z</time>
      </trkpt>
      <trkpt lat="45.42195" lon="4.98272">
        <ele>436</ele>
        <time>2023-08-30T23:21:58Z</time>
      </trkpt>
      <trkpt lat="45.42211" lon="4.98274">
        <ele>436</ele>
        <time>2023-08-30T23:22:02Z</time>
      </trkpt>
      <trkpt lat="45.42293" lon="4.98303">
        <ele>436</ele>
        <time>2023-08-30T23:22:21Z</time>
      </trkpt>
      <trkpt lat="45.42324" lon="4.98318">
        <ele>436</ele>
        <time>2023-08-30T23:22:29Z</time>
      </trkpt>
      <trkpt lat="45.42339" lon="4.98295">
        <ele>435</ele>
        <time>2023-08-30T23:22:34Z</time>
      </trkpt>
      <trkpt lat="45.42345" lon="4.9827">
        <ele>433</ele>
        <time>2023-08-30T23:22:38Z</time>
      </trkpt>
      <trkpt lat="45.42347" lon="4.98248">
        <ele>432</ele>
        <time>2023-08-30T23:22:42Z</time>
      </trkpt>
      <trkpt lat="45.42349" lon="4.98212">
        <ele>431</ele>
        <time>2023-08-30T23:22:48Z</time>
      </trkpt>
      <trkpt lat="45.4235" lon="4.98133">
        <ele>427</ele>
        <time>2023-08-30T23:23:01Z</time>
      </trkpt>
      <trkpt lat="45.42352" lon="4.98059">
        <ele>425</ele>
        <time>2023-08-30T23:23:13Z</time>
      </trkpt>
      <trkpt lat="45.42343" lon="4.98008">
        <ele>426</ele>
        <time>2023-08-30T23:23:22Z</time>
      </trkpt>
      <trkpt lat="45.42341" lon="4.97997">
        <ele>426</ele>
        <time>2023-08-30T23:23:24Z</time>
      </trkpt>
      <trkpt lat="45.4232" lon="4.97754">
        <ele>431</ele>
        <time>2023-08-30T23:24:04Z</time>
      </trkpt>
      <trkpt lat="45.42317" lon="4.97754">
        <ele>431</ele>
        <time>2023-08-30T23:24:04Z</time>
      </trkpt>
      <trkpt lat="45.423" lon="4.97754">
        <ele>432</ele>
        <time>2023-08-30T23:24:08Z</time>
      </trkpt>
      <trkpt lat="45.42284" lon="4.97749">
        <ele>433</ele>
        <time>2023-08-30T23:24:12Z</time>
      </trkpt>
      <trkpt lat="45.42273" lon="4.97739">
        <ele>433</ele>
        <time>2023-08-30T23:24:15Z</time>
      </trkpt>
      <trkpt lat="45.42215" lon="4.97676">
        <ele>431</ele>
        <time>2023-08-30T23:24:32Z</time>
      </trkpt>
      <trkpt lat="45.42234" lon="4.97622">
        <ele>428</ele>
        <time>2023-08-30T23:24:42Z</time>
      </trkpt>
      <trkpt lat="45.42265" lon="4.97521">
        <ele>421</ele>
        <time>2023-08-30T23:25:00Z</time>
      </trkpt>
      <trkpt lat="45.42283" lon="4.97459">
        <ele>417</ele>
        <time>2023-08-30T23:25:11Z</time>
      </trkpt>
      <trkpt lat="45.42298" lon="4.97417">
        <ele>414</ele>
        <time>2023-08-30T23:25:19Z</time>
      </trkpt>
      <trkpt lat="45.42334" lon="4.97373">
        <ele>411</ele>
        <time>2023-08-30T23:25:30Z</time>
      </trkpt>
      <trkpt lat="45.42369" lon="4.97314">
        <ele>409</ele>
        <time>2023-08-30T23:25:43Z</time>
      </trkpt>
      <trkpt lat="45.424" lon="4.97249">
        <ele>407</ele>
        <time>2023-08-30T23:25:56Z</time>
      </trkpt>
      <trkpt lat="45.42447" lon="4.97172">
        <ele>408</ele>
        <time>2023-08-30T23:26:12Z</time>
      </trkpt>
      <trkpt lat="45.42484" lon="4.97101">
        <ele>407</ele>
        <time>2023-08-30T23:26:27Z</time>
      </trkpt>
      <trkpt lat="45.42483" lon="4.97097">
        <ele>407</ele>
        <time>2023-08-30T23:26:27Z</time>
      </trkpt>
      <trkpt lat="45.42595" lon="4.97091">
        <ele>408</ele>
        <time>2023-08-30T23:26:54Z</time>
      </trkpt>
      <trkpt lat="45.42789" lon="4.97068">
        <ele>403</ele>
        <time>2023-08-30T23:27:39Z</time>
      </trkpt>
      <trkpt lat="45.42841" lon="4.9705">
        <ele>401</ele>
        <time>2023-08-30T23:27:52Z</time>
      </trkpt>
      <trkpt lat="45.42867" lon="4.97047">
        <ele>401</ele>
        <time>2023-08-30T23:27:58Z</time>
      </trkpt>
      <trkpt lat="45.42888" lon="4.97046">
        <ele>402.3</ele>
      </trkpt>
      <trkpt lat="45.42867" lon="4.97047">
        <ele>402.4</ele>
        <time>2023-08-30T21:21:13Z</time>
      </trkpt>
    </trkseg>
  </trk>
  <trk>
    <name><![CDATA[Sanglier 2023 - VTT 36km et 48km_2]]></name>
    <trkseg>
      <trkpt lat="45.41459" lon="4.92633">
        <ele>405.6</ele>
      </trkpt>
      <trkpt lat="45.41442" lon="4.9265">
        <ele>404.5</ele>
      </trkpt>
      <trkpt lat="45.41387" lon="4.92645">
        <ele>402.7</ele>
      </trkpt>
      <trkpt lat="45.41364" lon="4.92656">
        <ele>400.6</ele>
      </trkpt>
      <trkpt lat="45.41355" lon="4.92681">
        <ele>398.3</ele>
      </trkpt>
      <trkpt lat="45.4135" lon="4.92729">
        <ele>395</ele>
      </trkpt>
      <trkpt lat="45.41321" lon="4.92814">
        <ele>387.4</ele>
      </trkpt>
      <trkpt lat="45.41297" lon="4.92816">
        <ele>383.3</ele>
      </trkpt>
      <trkpt lat="45.41223" lon="4.92701">
        <ele>373.1</ele>
      </trkpt>
      <trkpt lat="45.41204" lon="4.92646">
        <ele>372.7</ele>
      </trkpt>
      <trkpt lat="45.41181" lon="4.92591">
        <ele>371.3</ele>
      </trkpt>
      <trkpt lat="45.41135" lon="4.92509">
        <ele>369.8</ele>
      </trkpt>
      <trkpt lat="45.41083" lon="4.92469">
        <ele>367.2</ele>
      </trkpt>
      <trkpt lat="45.40911" lon="4.92315">
        <ele>369.8</ele>
      </trkpt>
      <trkpt lat="45.40864" lon="4.92321">
        <ele>367.1</ele>
      </trkpt>
      <trkpt lat="45.40699" lon="4.92278">
        <ele>360.4</ele>
      </trkpt>
      <trkpt lat="45.40652" lon="4.92276">
        <ele>358.2</ele>
      </trkpt>
      <trkpt lat="45.40589" lon="4.92247">
        <ele>354.9</ele>
      </trkpt>
      <trkpt lat="45.40552" lon="4.92213">
        <ele>354.2</ele>
      </trkpt>
      <trkpt lat="45.40527" lon="4.92151">
        <ele>353.9</ele>
      </trkpt>
      <trkpt lat="45.40649" lon="4.92102">
        <ele>371.6</ele>
      </trkpt>
      <trkpt lat="45.40808" lon="4.92093">
        <ele>386.5</ele>
      </trkpt>
      <trkpt lat="45.40872" lon="4.92097">
        <ele>389.8</ele>
      </trkpt>
      <trkpt lat="45.40943" lon="4.92075">
        <ele>395.8</ele>
      </trkpt>
      <trkpt lat="45.41058" lon="4.92085">
        <ele>401.1</ele>
      </trkpt>
      <trkpt lat="45.41135" lon="4.92107">
        <ele>403.9</ele>
      </trkpt>
      <trkpt lat="45.41239" lon="4.92075">
        <ele>403.4</ele>
      </trkpt>
      <trkpt lat="45.41239" lon="4.92075">
        <ele>403.4</ele>
      </trkpt>
    </trkseg>
  </trk>
  <trk>
    <name><![CDATA[Sanglier 2023 - VTT 36km et 48km_3]]></name>
    <trkseg>
      <trkpt lat="45.41268" lon="4.91593">
        <ele>396.2</ele>
      </trkpt>
      <trkpt lat="45.41236" lon="4.91581">
        <ele>393.9</ele>
      </trkpt>
      <trkpt lat="45.41196" lon="4.91582">
        <ele>390.2</ele>
      </trkpt>
      <trkpt lat="45.4115" lon="4.91619">
        <ele>386.7</ele>
      </trkpt>
      <trkpt lat="45.41068" lon="4.9162">
        <ele>378.9</ele>
      </trkpt>
      <trkpt lat="45.41071" lon="4.9155">
        <ele>374.4</ele>
      </trkpt>
      <trkpt lat="45.41075" lon="4.91497">
        <ele>373.5</ele>
      </trkpt>
      <trkpt lat="45.41069" lon="4.91485">
        <ele>373</ele>
      </trkpt>
      <trkpt lat="45.41056" lon="4.91488">
        <ele>371.4</ele>
      </trkpt>
      <trkpt lat="45.41036" lon="4.91508">
        <ele>369.6</ele>
      </trkpt>
      <trkpt lat="45.41019" lon="4.91503">
        <ele>368.5</ele>
      </trkpt>
      <trkpt lat="45.40972" lon="4.91489">
        <ele>365.6</ele>
      </trkpt>
      <trkpt lat="45.40921" lon="4.91496">
        <ele>362.5</ele>
      </trkpt>
      <trkpt lat="45.40835" lon="4.91556">
        <ele>356.1</ele>
      </trkpt>
      <trkpt lat="45.40827" lon="4.91547">
        <ele>356.9</ele>
      </trkpt>
      <trkpt lat="45.40824" lon="4.91531">
        <ele>358.3</ele>
      </trkpt>
      <trkpt lat="45.40819" lon="4.91527">
        <ele>358.6</ele>
      </trkpt>
      <trkpt lat="45.40806" lon="4.91527">
        <ele>358.1</ele>
      </trkpt>
      <trkpt lat="45.40741" lon="4.91567">
        <ele>356.8</ele>
      </trkpt>
      <trkpt lat="45.40721" lon="4.91558">
        <ele>358.9</ele>
      </trkpt>
      <trkpt lat="45.40697" lon="4.9156">
        <ele>360.4</ele>
      </trkpt>
      <trkpt lat="45.4068" lon="4.9157">
        <ele>360.7</ele>
      </trkpt>
      <trkpt lat="45.40653" lon="4.91599">
        <ele>359.3</ele>
      </trkpt>
      <trkpt lat="45.40551" lon="4.91645">
        <ele>360.2</ele>
      </trkpt>
      <trkpt lat="45.40521" lon="4.91667">
        <ele>356.9</ele>
      </trkpt>
      <trkpt lat="45.40498" lon="4.91676">
        <ele>356</ele>
      </trkpt>
      <trkpt lat="45.4047" lon="4.91679">
        <ele>355.2</ele>
      </trkpt>
      <trkpt lat="45.40381" lon="4.91679">
        <ele>354.1</ele>
      </trkpt>
      <trkpt lat="45.40344" lon="4.91668">
        <ele>354.9</ele>
      </trkpt>
      <trkpt lat="45.40294" lon="4.91665">
        <ele>352.8</ele>
      </trkpt>
      <trkpt lat="45.4027" lon="4.91618">
        <ele>353.9</ele>
      </trkpt>
      <trkpt lat="45.4027" lon="4.91612">
        <ele>354.1</ele>
      </trkpt>
      <trkpt lat="45.40279" lon="4.91605">
        <ele>355.4</ele>
      </trkpt>
      <trkpt lat="45.40318" lon="4.91597">
        <ele>360.1</ele>
      </trkpt>
      <trkpt lat="45.40357" lon="4.9158">
        <ele>364.9</ele>
      </trkpt>
      <trkpt lat="45.40383" lon="4.91558">
        <ele>368.4</ele>
      </trkpt>
      <trkpt lat="45.40421" lon="4.91511">
        <ele>373.8</ele>
      </trkpt>
      <trkpt lat="45.40456" lon="4.91497">
        <ele>376.7</ele>
      </trkpt>
      <trkpt lat="45.40479" lon="4.91478">
        <ele>379.4</ele>
      </trkpt>
      <trkpt lat="45.40514" lon="4.91464">
        <ele>380.2</ele>
      </trkpt>
      <trkpt lat="45.40548" lon="4.91441">
        <ele>382.2</ele>
      </trkpt>
      <trkpt lat="45.40572" lon="4.91419">
        <ele>382.9</ele>
      </trkpt>
      <trkpt lat="45.40587" lon="4.91396">
        <ele>384.7</ele>
      </trkpt>
      <trkpt lat="45.40589" lon="4.91383">
        <ele>385.9</ele>
      </trkpt>
      <trkpt lat="45.40575" lon="4.91255">
        <ele>390.9</ele>
      </trkpt>
      <trkpt lat="45.40574" lon="4.91218">
        <ele>391</ele>
      </trkpt>
      <trkpt lat="45.40582" lon="4.91202">
        <ele>391.9</ele>
      </trkpt>
      <trkpt lat="45.40772" lon="4.91049">
        <ele>393.2</ele>
      </trkpt>
      <trkpt lat="45.40772" lon="4.91049">
        <ele>393.2</ele>
      </trkpt>
    </trkseg>
  </trk>
  <trk>
    <name><![CDATA[Sanglier 2023 - VTT 36km et 48km_4]]></name>
    <trkseg>
      <trkpt lat="45.40436" lon="4.88583">
        <ele>371.7</ele>
      </trkpt>
      <trkpt lat="45.40451" lon="4.88488">
        <ele>369.5</ele>
      </trkpt>
      <trkpt lat="45.40468" lon="4.88353">
        <ele>367.6</ele>
      </trkpt>
      <trkpt lat="45.40466" lon="4.88328">
        <ele>366.6</ele>
      </trkpt>
      <trkpt lat="45.40476" lon="4.8829">
        <ele>365.9</ele>
      </trkpt>
      <trkpt lat="45.40496" lon="4.88182">
        <ele>361.5</ele>
      </trkpt>
      <trkpt lat="45.40494" lon="4.88145">
        <ele>358.6</ele>
      </trkpt>
      <trkpt lat="45.40519" lon="4.8804">
        <ele>351.5</ele>
      </trkpt>
      <trkpt lat="45.40576" lon="4.8789">
        <ele>342.5</ele>
      </trkpt>
      <trkpt lat="45.40496" lon="4.87919">
        <ele>337.7</ele>
      </trkpt>
      <trkpt lat="45.40469" lon="4.87916">
        <ele>334.7</ele>
      </trkpt>
      <trkpt lat="45.4039" lon="4.87941">
        <ele>333.6</ele>
      </trkpt>
      <trkpt lat="45.40372" lon="4.87955">
        <ele>332.9</ele>
      </trkpt>
      <trkpt lat="45.40266" lon="4.88171">
        <ele>329.8</ele>
      </trkpt>
      <trkpt lat="45.40248" lon="4.88178">
        <ele>326.6</ele>
      </trkpt>
      <trkpt lat="45.40235" lon="4.88162">
        <ele>323.9</ele>
      </trkpt>
      <trkpt lat="45.40228" lon="4.8815">
        <ele>322.3</ele>
      </trkpt>
      <trkpt lat="45.4021" lon="4.88138">
        <ele>321.8</ele>
      </trkpt>
      <trkpt lat="45.40186" lon="4.88108">
        <ele>320.9</ele>
      </trkpt>
      <trkpt lat="45.40162" lon="4.88068">
        <ele>320.7</ele>
      </trkpt>
      <trkpt lat="45.40146" lon="4.88002">
        <ele>322.7</ele>
      </trkpt>
      <trkpt lat="45.40127" lon="4.87898">
        <ele>323.6</ele>
      </trkpt>
      <trkpt lat="45.40114" lon="4.87874">
        <ele>324.1</ele>
      </trkpt>
      <trkpt lat="45.40104" lon="4.87853">
        <ele>325.2</ele>
      </trkpt>
      <trkpt lat="45.40098" lon="4.87847">
        <ele>326.1</ele>
      </trkpt>
      <trkpt lat="45.40077" lon="4.87831">
        <ele>328.9</ele>
      </trkpt>
      <trkpt lat="45.40047" lon="4.87798">
        <ele>333.2</ele>
      </trkpt>
      <trkpt lat="45.40032" lon="4.87777">
        <ele>335.4</ele>
      </trkpt>
      <trkpt lat="45.40024" lon="4.87769">
        <ele>336.5</ele>
      </trkpt>
      <trkpt lat="45.40024" lon="4.8775">
        <ele>336.5</ele>
      </trkpt>
      <trkpt lat="45.40026" lon="4.87709">
        <ele>337.7</ele>
      </trkpt>
      <trkpt lat="45.40041" lon="4.87645">
        <ele>339.1</ele>
      </trkpt>
      <trkpt lat="45.40087" lon="4.87549">
        <ele>338.9</ele>
      </trkpt>
      <trkpt lat="45.4009" lon="4.87512">
        <ele>339</ele>
      </trkpt>
      <trkpt lat="45.4009" lon="4.87468">
        <ele>338.3</ele>
      </trkpt>
      <trkpt lat="45.4008" lon="4.87413">
        <ele>339.3</ele>
      </trkpt>
      <trkpt lat="45.40023" lon="4.87426">
        <ele>344.5</ele>
      </trkpt>
      <trkpt lat="45.39945" lon="4.87444">
        <ele>348</ele>
      </trkpt>
      <trkpt lat="45.39935" lon="4.87467">
        <ele>348.2</ele>
      </trkpt>
      <trkpt lat="45.39923" lon="4.87505">
        <ele>349.9</ele>
      </trkpt>
      <trkpt lat="45.39913" lon="4.87528">
        <ele>351.2</ele>
      </trkpt>
      <trkpt lat="45.39871" lon="4.87597">
        <ele>355.1</ele>
      </trkpt>
      <trkpt lat="45.39862" lon="4.87649">
        <ele>356</ele>
      </trkpt>
      <trkpt lat="45.39862" lon="4.87691">
        <ele>356.8</ele>
      </trkpt>
      <trkpt lat="45.39862" lon="4.87735">
        <ele>356.9</ele>
      </trkpt>
      <trkpt lat="45.39862" lon="4.87762">
        <ele>356.9</ele>
      </trkpt>
      <trkpt lat="45.39858" lon="4.87813">
        <ele>358.3</ele>
      </trkpt>
      <trkpt lat="45.39864" lon="4.87866">
        <ele>358.6</ele>
      </trkpt>
      <trkpt lat="45.39866" lon="4.87954">
        <ele>360.8</ele>
      </trkpt>
      <trkpt lat="45.39877" lon="4.88008">
        <ele>361.6</ele>
      </trkpt>
      <trkpt lat="45.39898" lon="4.88088">
        <ele>362.4</ele>
      </trkpt>
      <trkpt lat="45.39908" lon="4.88162">
        <ele>363.5</ele>
      </trkpt>
      <trkpt lat="45.39911" lon="4.8818">
        <ele>363.9</ele>
      </trkpt>
      <trkpt lat="45.39933" lon="4.88268">
        <ele>364.9</ele>
      </trkpt>
      <trkpt lat="45.39947" lon="4.883">
        <ele>365.4</ele>
      </trkpt>
      <trkpt lat="45.39997" lon="4.88364">
        <ele>365.4</ele>
      </trkpt>
      <trkpt lat="45.40029" lon="4.88407">
        <ele>366.2</ele>
      </trkpt>
      <trkpt lat="45.40065" lon="4.88506">
        <ele>365.6</ele>
      </trkpt>
      <trkpt lat="45.401" lon="4.88561">
        <ele>362.8</ele>
      </trkpt>
      <trkpt lat="45.40123" lon="4.88584">
        <ele>361.5</ele>
      </trkpt>
      <trkpt lat="45.40147" lon="4.88596">
        <ele>360.6</ele>
      </trkpt>
      <trkpt lat="45.40124" lon="4.88597">
        <ele>361.1</ele>
      </trkpt>
      <trkpt lat="45.40111" lon="4.88602">
        <ele>361.3</ele>
      </trkpt>
      <trkpt lat="45.40093" lon="4.886">
        <ele>361</ele>
      </trkpt>
      <trkpt lat="45.4005" lon="4.88573">
        <ele>363.5</ele>
      </trkpt>
      <trkpt lat="45.40028" lon="4.88548">
        <ele>365.6</ele>
      </trkpt>
      <trkpt lat="45.4001" lon="4.8854">
        <ele>367.5</ele>
      </trkpt>
      <trkpt lat="45.39994" lon="4.88537">
        <ele>368.6</ele>
      </trkpt>
      <trkpt lat="45.39952" lon="4.88555">
        <ele>368.8</ele>
      </trkpt>
      <trkpt lat="45.39902" lon="4.88566">
        <ele>369.2</ele>
      </trkpt>
      <trkpt lat="45.3988" lon="4.88586">
        <ele>367.8</ele>
      </trkpt>
      <trkpt lat="45.39867" lon="4.88593">
        <ele>367.3</ele>
      </trkpt>
      <trkpt lat="45.39867" lon="4.88607">
        <ele>366.3</ele>
      </trkpt>
      <trkpt lat="45.39851" lon="4.88651">
        <ele>360.9</ele>
      </trkpt>
      <trkpt lat="45.39849" lon="4.88678">
        <ele>357.4</ele>
      </trkpt>
      <trkpt lat="45.39846" lon="4.88701">
        <ele>354</ele>
      </trkpt>
      <trkpt lat="45.39833" lon="4.88735">
        <ele>348.7</ele>
      </trkpt>
      <trkpt lat="45.39821" lon="4.88758">
        <ele>345.1</ele>
      </trkpt>
      <trkpt lat="45.39807" lon="4.88772">
        <ele>343</ele>
      </trkpt>
      <trkpt lat="45.39735" lon="4.88822">
        <ele>328.5</ele>
      </trkpt>
      <trkpt lat="45.39753" lon="4.88828">
        <ele>329.1</ele>
      </trkpt>
      <trkpt lat="45.39771" lon="4.88839">
        <ele>328.2</ele>
      </trkpt>
      <trkpt lat="45.39795" lon="4.8884">
        <ele>329.3</ele>
      </trkpt>
      <trkpt lat="45.39812" lon="4.88839">
        <ele>330.2</ele>
      </trkpt>
      <trkpt lat="45.39838" lon="4.88832">
        <ele>332.1</ele>
      </trkpt>
      <trkpt lat="45.39888" lon="4.88827">
        <ele>333</ele>
      </trkpt>
      <trkpt lat="45.39922" lon="4.88819">
        <ele>332.9</ele>
      </trkpt>
      <trkpt lat="45.39972" lon="4.88818">
        <ele>331.2</ele>
      </trkpt>
      <trkpt lat="45.39994" lon="4.88826">
        <ele>329.3</ele>
      </trkpt>
      <trkpt lat="45.40008" lon="4.88822">
        <ele>329.4</ele>
      </trkpt>
      <trkpt lat="45.40037" lon="4.88796">
        <ele>333.1</ele>
      </trkpt>
      <trkpt lat="45.40054" lon="4.88788">
        <ele>334.2</ele>
      </trkpt>
      <trkpt lat="45.40103" lon="4.88775">
        <ele>335.7</ele>
      </trkpt>
      <trkpt lat="45.40256" lon="4.88791">
        <ele>341.5</ele>
      </trkpt>
      <trkpt lat="45.40285" lon="4.88803">
        <ele>341.8</ele>
      </trkpt>
      <trkpt lat="45.40346" lon="4.88852">
        <ele>345.3</ele>
      </trkpt>
      <trkpt lat="45.4037" lon="4.88866">
        <ele>347.4</ele>
      </trkpt>
      <trkpt lat="45.40421" lon="4.88864">
        <ele>351.1</ele>
      </trkpt>
      <trkpt lat="45.40421" lon="4.88864">
        <ele>351.1</ele>
      </trkpt>
    </trkseg>
  </trk>
  <trk>
    <name><![CDATA[Sanglier 2023 - VTT 36km et 48km_5]]></name>
    <trkseg>
      <trkpt lat="45.41593" lon="4.99899">
        <ele>447.3</ele>
      </trkpt>
      <trkpt lat="45.41588" lon="5.00024">
        <ele>449.9</ele>
      </trkpt>
      <trkpt lat="45.41561" lon="5.00183">
        <ele>450.4</ele>
      </trkpt>
      <trkpt lat="45.41476" lon="5.00478">
        <ele>452.7</ele>
      </trkpt>
      <trkpt lat="45.41472" lon="5.00748">
        <ele>453</ele>
      </trkpt>
      <trkpt lat="45.41498" lon="5.00744">
        <ele>452.3</ele>
      </trkpt>
      <trkpt lat="45.41596" lon="5.00664">
        <ele>452.9</ele>
      </trkpt>
      <trkpt lat="45.41694" lon="5.00605">
        <ele>452.6</ele>
      </trkpt>
      <trkpt lat="45.41721" lon="5.00601">
        <ele>452.3</ele>
      </trkpt>
      <trkpt lat="45.418" lon="5.00547">
        <ele>450.7</ele>
      </trkpt>
      <trkpt lat="45.41817" lon="5.00515">
        <ele>449.3</ele>
      </trkpt>
      <trkpt lat="45.41846" lon="5.00486">
        <ele>448</ele>
      </trkpt>
      <trkpt lat="45.41855" lon="5.00482">
        <ele>447.7</ele>
      </trkpt>
      <trkpt lat="45.41882" lon="5.00498">
        <ele>447.5</ele>
      </trkpt>
      <trkpt lat="45.41907" lon="5.00497">
        <ele>446.3</ele>
      </trkpt>
      <trkpt lat="45.41941" lon="5.00477">
        <ele>445</ele>
      </trkpt>
      <trkpt lat="45.41965" lon="5.00437">
        <ele>444.4</ele>
      </trkpt>
      <trkpt lat="45.4198" lon="5.00428">
        <ele>444.1</ele>
      </trkpt>
      <trkpt lat="45.41995" lon="5.00403">
        <ele>443.7</ele>
      </trkpt>
      <trkpt lat="45.42012" lon="5.00387">
        <ele>443.5</ele>
      </trkpt>
      <trkpt lat="45.42033" lon="5.00382">
        <ele>442.9</ele>
      </trkpt>
      <trkpt lat="45.42056" lon="5.00382">
        <ele>442.5</ele>
      </trkpt>
      <trkpt lat="45.42088" lon="5.00369">
        <ele>442</ele>
      </trkpt>
      <trkpt lat="45.42192" lon="5.00301">
        <ele>438.7</ele>
      </trkpt>
      <trkpt lat="45.42237" lon="5.00291">
        <ele>436.7</ele>
      </trkpt>
      <trkpt lat="45.42291" lon="5.00271">
        <ele>434.7</ele>
      </trkpt>
      <trkpt lat="45.42328" lon="5.00241">
        <ele>430.9</ele>
      </trkpt>
      <trkpt lat="45.42351" lon="5.00229">
        <ele>428.2</ele>
      </trkpt>
      <trkpt lat="45.42364" lon="5.00227">
        <ele>426.6</ele>
      </trkpt>
      <trkpt lat="45.42377" lon="5.00213">
        <ele>424.8</ele>
      </trkpt>
      <trkpt lat="45.42384" lon="5.00197">
        <ele>423.4</ele>
      </trkpt>
      <trkpt lat="45.42381" lon="5.00189">
        <ele>423.2</ele>
      </trkpt>
      <trkpt lat="45.42338" lon="5.00158">
        <ele>421.6</ele>
      </trkpt>
      <trkpt lat="45.42309" lon="5.00114">
        <ele>416.4</ele>
      </trkpt>
      <trkpt lat="45.42297" lon="5.00087">
        <ele>413.4</ele>
      </trkpt>
      <trkpt lat="45.42283" lon="5.00072">
        <ele>411.4</ele>
      </trkpt>
      <trkpt lat="45.42254" lon="5.0006">
        <ele>409.7</ele>
      </trkpt>
      <trkpt lat="45.42203" lon="5.0006">
        <ele>409.2</ele>
      </trkpt>
      <trkpt lat="45.42197" lon="5.00054">
        <ele>408.8</ele>
      </trkpt>
      <trkpt lat="45.42197" lon="5.00044">
        <ele>408</ele>
      </trkpt>
      <trkpt lat="45.42192" lon="5.00028">
        <ele>407.2</ele>
      </trkpt>
      <trkpt lat="45.42191" lon="4.99989">
        <ele>409.6</ele>
      </trkpt>
      <trkpt lat="45.42197" lon="4.99969">
        <ele>411.2</ele>
      </trkpt>
      <trkpt lat="45.42212" lon="4.99945">
        <ele>413.6</ele>
      </trkpt>
      <trkpt lat="45.42265" lon="4.99894">
        <ele>415.4</ele>
      </trkpt>
      <trkpt lat="45.42287" lon="4.99864">
        <ele>416.5</ele>
      </trkpt>
      <trkpt lat="45.42332" lon="4.99818">
        <ele>417.6</ele>
      </trkpt>
      <trkpt lat="45.42346" lon="4.9978">
        <ele>419</ele>
      </trkpt>
      <trkpt lat="45.42347" lon="4.99762">
        <ele>420.2</ele>
      </trkpt>
      <trkpt lat="45.42356" lon="4.99732">
        <ele>422.2</ele>
      </trkpt>
      <trkpt lat="45.42373" lon="4.99707">
        <ele>423.7</ele>
      </trkpt>
      <trkpt lat="45.42426" lon="4.99649">
        <ele>426.3</ele>
      </trkpt>
      <trkpt lat="45.42486" lon="4.99557">
        <ele>432.3</ele>
      </trkpt>
      <trkpt lat="45.42498" lon="4.9953">
        <ele>434.9</ele>
      </trkpt>
      <trkpt lat="45.42514" lon="4.9949">
        <ele>438.2</ele>
      </trkpt>
      <trkpt lat="45.42531" lon="4.99458">
        <ele>439.9</ele>
      </trkpt>
      <trkpt lat="45.42555" lon="4.99432">
        <ele>440.5</ele>
      </trkpt>
      <trkpt lat="45.42557" lon="4.99418">
        <ele>440.9</ele>
      </trkpt>
      <trkpt lat="45.42553" lon="4.99394">
        <ele>440.2</ele>
      </trkpt>
      <trkpt lat="45.42496" lon="4.99425">
        <ele>441.3</ele>
      </trkpt>
      <trkpt lat="45.42346" lon="4.9948">
        <ele>443.1</ele>
      </trkpt>
      <trkpt lat="45.42305" lon="4.9949">
        <ele>444.6</ele>
      </trkpt>
      <trkpt lat="45.4222" lon="4.99529">
        <ele>447</ele>
      </trkpt>
      <trkpt lat="45.41995" lon="4.99549">
        <ele>449.7</ele>
      </trkpt>
      <trkpt lat="45.41721" lon="4.99583">
        <ele>450.1</ele>
      </trkpt>
      <trkpt lat="45.41721" lon="4.99583">
        <ele>450.1</ele>
      </trkpt>
    </trkseg>
  </trk>
</gpx>